<?xml version='1.0' encoding='UTF-8'?>
<gpx xmlns="http://www.topografix.com/GPX/1/1" creator="www.balnam.be" version="1.1" xmlns:xsi="http://www.w3.org/2001/XMLSchema-instance" xsi:schemaLocation="http://www.topografix.com/GPX/1/1 http://www.topografix.com/GPX/1/1/gpx.xsd">
<trk>
<name>xlblb1</name>
<cmt>r</cmt>
<desc>Libin Chemin n°1 </desc>
<link href="https://chemins.be/libin/chemin/1"/><trkseg>
<trkpt lat="49.988856" lon="5.319078"><time>2026-05-06T18:09:46Z</time></trkpt>
<trkpt lat="49.988470" lon="5.318263"><time>2026-05-06T18:19:46Z</time></trkpt>
<trkpt lat="49.988070" lon="5.316503"><time>2026-05-06T18:29:46Z</time></trkpt>
<trkpt lat="49.987090" lon="5.314679"><time>2026-05-06T18:39:46Z</time></trkpt>
<trkpt lat="49.985931" lon="5.313864"><time>2026-05-06T18:49:46Z</time></trkpt>
<trkpt lat="49.981893" lon="5.305426"><time>2026-05-06T18:59:46Z</time></trkpt>
<trkpt lat="49.979626" lon="5.300689"><time>2026-05-06T19:09:46Z</time></trkpt>
<trkpt lat="49.978839" lon="5.298092"><time>2026-05-06T19:19:46Z</time></trkpt>
<trkpt lat="49.977956" lon="5.290174"><time>2026-05-06T19:29:46Z</time></trkpt>
<trkpt lat="49.976797" lon="5.287986"><time>2026-05-06T19:39:46Z</time></trkpt>
<trkpt lat="49.976612" lon="5.286559"><time>2026-05-06T19:49:46Z</time></trkpt>
<trkpt lat="49.976059" lon="5.282299"><time>2026-05-06T19:59:46Z</time></trkpt>
<trkpt lat="49.976038" lon="5.276120"><time>2026-05-06T20:09:46Z</time></trkpt>
<trkpt lat="49.976266" lon="5.268728"><time>2026-05-06T20:19:46Z</time></trkpt>
</trkseg>
</trk>
<trk>
<name>xlblb10</name>
<cmt>v</cmt>
<desc>Libin Chemin n°10 </desc>
<link href="https://chemins.be/libin/chemin/10"/><trkseg>
<trkpt lat="50.018874" lon="5.259243"><time>2026-05-06T18:09:46Z</time></trkpt>
<trkpt lat="50.018984" lon="5.257752"><time>2026-05-06T18:19:46Z</time></trkpt>
<trkpt lat="50.019556" lon="5.256926"><time>2026-05-06T18:29:46Z</time></trkpt>
<trkpt lat="50.020004" lon="5.256625"><time>2026-05-06T18:39:46Z</time></trkpt>
<trkpt lat="50.021307" lon="5.253074"><time>2026-05-06T18:49:46Z</time></trkpt>
<trkpt lat="50.023044" lon="5.252259"><time>2026-05-06T18:59:46Z</time></trkpt>
<trkpt lat="50.024554" lon="5.250767"><time>2026-05-06T19:09:46Z</time></trkpt>
<trkpt lat="50.027470" lon="5.245832"><time>2026-05-06T19:19:46Z</time></trkpt>
<trkpt lat="50.030344" lon="5.243182"><time>2026-05-06T19:29:46Z</time></trkpt>
<trkpt lat="50.032790" lon="5.241991"><time>2026-05-06T19:39:46Z</time></trkpt>
<trkpt lat="50.033714" lon="5.240940"><time>2026-05-06T19:49:46Z</time></trkpt>
<trkpt lat="50.035016" lon="5.239931"><time>2026-05-06T19:59:46Z</time></trkpt>
<trkpt lat="50.035547" lon="5.239105"><time>2026-05-06T20:09:46Z</time></trkpt>
<trkpt lat="50.035884" lon="5.237142"><time>2026-05-06T20:19:46Z</time></trkpt>
<trkpt lat="50.036401" lon="5.236047"><time>2026-05-06T20:29:46Z</time></trkpt>
</trkseg>
</trk>
<trk>
<name>xlblb11</name>
<cmt>v</cmt>
<desc>Libin Chemin n°11 </desc>
<link href="https://chemins.be/libin/chemin/11"/><trkseg>
<trkpt lat="50.024347" lon="5.229803"><time>2026-05-06T18:09:46Z</time></trkpt>
<trkpt lat="50.025671" lon="5.231445"><time>2026-05-06T18:19:46Z</time></trkpt>
<trkpt lat="50.027669" lon="5.233462"><time>2026-05-06T18:29:46Z</time></trkpt>
<trkpt lat="50.029606" lon="5.234631"><time>2026-05-06T18:39:46Z</time></trkpt>
<trkpt lat="50.030874" lon="5.235951"><time>2026-05-06T18:49:46Z</time></trkpt>
<trkpt lat="50.032494" lon="5.236198"><time>2026-05-06T18:59:46Z</time></trkpt>
<trkpt lat="50.034930" lon="5.237201"><time>2026-05-06T19:09:46Z</time></trkpt>
<trkpt lat="50.035843" lon="5.237292"><time>2026-05-06T19:19:46Z</time></trkpt>
<trkpt lat="50.037304" lon="5.237228"><time>2026-05-06T19:29:46Z</time></trkpt>
</trkseg>
</trk>
<trk>
<name>xlblb12</name>
<cmt>v</cmt>
<desc>Libin Chemin n°12 </desc>
<link href="https://chemins.be/libin/chemin/12"/><trkseg>
<trkpt lat="50.024490" lon="5.250780"><time>2026-05-06T18:09:46Z</time></trkpt>
<trkpt lat="50.025301" lon="5.245467"><time>2026-05-06T18:19:46Z</time></trkpt>
<trkpt lat="50.025582" lon="5.242069"><time>2026-05-06T18:29:46Z</time></trkpt>
<trkpt lat="50.026820" lon="5.240568"><time>2026-05-06T18:39:46Z</time></trkpt>
<trkpt lat="50.027032" lon="5.240275"><time>2026-05-06T18:49:46Z</time></trkpt>
<trkpt lat="50.027964" lon="5.239022"><time>2026-05-06T18:59:46Z</time></trkpt>
<trkpt lat="50.028670" lon="5.237116"><time>2026-05-06T19:09:46Z</time></trkpt>
<trkpt lat="50.028769" lon="5.237150"><time>2026-05-06T19:19:46Z</time></trkpt>
<trkpt lat="50.029166" lon="5.236232"><time>2026-05-06T19:29:46Z</time></trkpt>
<trkpt lat="50.029387" lon="5.234515"><time>2026-05-06T19:39:46Z</time></trkpt>
</trkseg>
</trk>
<trk>
<name>xlblb13</name>
<cmt>v</cmt>
<desc>Libin Chemin n°13 </desc>
<link href="https://chemins.be/libin/chemin/13"/><trkseg>
<trkpt lat="49.978412" lon="5.264146"><time>2026-05-06T18:09:46Z</time></trkpt>
<trkpt lat="49.977929" lon="5.265670"><time>2026-05-06T18:19:46Z</time></trkpt>
<trkpt lat="49.976649" lon="5.268235"><time>2026-05-06T18:29:46Z</time></trkpt>
<trkpt lat="49.976174" lon="5.268724"><time>2026-05-06T18:39:46Z</time></trkpt>
</trkseg></trk>
<trk>
<name>xlblb13</name>
<cmt>r</cmt>
<desc>Libin Chemin n°13 </desc>
<link href="https://chemins.be/libin/chemin/13"/><trkseg>
<trkpt lat="49.976174" lon="5.268724"><time>2026-05-06T18:39:46Z</time></trkpt>
<trkpt lat="49.976052" lon="5.268137"><time>2026-05-06T18:49:46Z</time></trkpt>
</trkseg></trk>
<trk>
<name>xlblb13</name>
<cmt>v</cmt>
<desc>Libin Chemin n°13 </desc>
<link href="https://chemins.be/libin/chemin/13"/><trkseg>
<trkpt lat="49.976052" lon="5.268137"><time>2026-05-06T18:49:46Z</time></trkpt>
<trkpt lat="49.975583" lon="5.269768"><time>2026-05-06T18:59:46Z</time></trkpt>
<trkpt lat="49.973886" lon="5.273523"><time>2026-05-06T19:09:46Z</time></trkpt>
<trkpt lat="49.973147" lon="5.275176"><time>2026-05-06T19:19:46Z</time></trkpt>
</trkseg></trk>
<trk>
<name>xlblb13</name>
<cmt>q</cmt>
<desc>Libin Chemin n°13 </desc>
<link href="https://chemins.be/libin/chemin/13"/><trkseg>
<trkpt lat="49.973147" lon="5.275176"><time>2026-05-06T19:19:46Z</time></trkpt>
<trkpt lat="49.971401" lon="5.279285"><time>2026-05-06T19:29:46Z</time></trkpt>
<trkpt lat="49.970394" lon="5.281720"><time>2026-05-06T19:39:46Z</time></trkpt>
<trkpt lat="49.967763" lon="5.285802"><time>2026-05-06T19:49:46Z</time></trkpt>
</trkseg></trk>
<trk>
<name>xlblb13</name>
<cmt>v</cmt>
<desc>Libin Chemin n°13 </desc>
<link href="https://chemins.be/libin/chemin/13"/><trkseg>
<trkpt lat="49.967763" lon="5.285802"><time>2026-05-06T19:49:46Z</time></trkpt>
<trkpt lat="49.966691" lon="5.287362"><time>2026-05-06T19:59:46Z</time></trkpt>
<trkpt lat="49.965587" lon="5.292597"><time>2026-05-06T20:09:46Z</time></trkpt>
<trkpt lat="49.961823" lon="5.301021"><time>2026-05-06T20:19:46Z</time></trkpt>
<trkpt lat="49.960553" lon="5.304433"><time>2026-05-06T20:29:46Z</time></trkpt>
<trkpt lat="49.960195" lon="5.306053"><time>2026-05-06T20:39:46Z</time></trkpt>
<trkpt lat="49.959505" lon="5.312040"><time>2026-05-06T20:49:46Z</time></trkpt>
<trkpt lat="49.958712" lon="5.313685"><time>2026-05-06T20:59:46Z</time></trkpt>
<trkpt lat="49.957489" lon="5.315559"><time>2026-05-06T21:09:46Z</time></trkpt>
</trkseg>
</trk>
<trk>
<name>xlblb14</name>
<cmt>q</cmt>
<desc>Libin Chemin n°14 </desc>
<link href="https://chemins.be/libin/chemin/14"/><trkseg>
<trkpt lat="49.970373" lon="5.281709"><time>2026-05-06T18:09:46Z</time></trkpt>
<trkpt lat="49.964383" lon="5.289434"><time>2026-05-06T18:19:46Z</time></trkpt>
</trkseg></trk>
<trk>
<name>xlblb14</name>
<cmt>v</cmt>
<desc>Libin Chemin n°14 </desc>
<link href="https://chemins.be/libin/chemin/14"/><trkseg>
<trkpt lat="49.964383" lon="5.289434"><time>2026-05-06T18:19:46Z</time></trkpt>
<trkpt lat="49.962492" lon="5.291601"><time>2026-05-06T18:29:46Z</time></trkpt>
<trkpt lat="49.960925" lon="5.292127"><time>2026-05-06T18:39:46Z</time></trkpt>
<trkpt lat="49.959038" lon="5.291814"><time>2026-05-06T18:49:46Z</time></trkpt>
<trkpt lat="49.957495" lon="5.291558"><time>2026-05-06T18:59:46Z</time></trkpt>
</trkseg>
</trk>
<trk>
<name>xlblb15</name>
<cmt>r</cmt>
<desc>Libin Chemin n°15 </desc>
<link href="https://chemins.be/libin/chemin/15"/><trkseg>
<trkpt lat="49.975962" lon="5.276806"><time>2026-05-06T18:09:46Z</time></trkpt>
<trkpt lat="49.974879" lon="5.282342"><time>2026-05-06T18:19:46Z</time></trkpt>
<trkpt lat="49.973388" lon="5.287085"><time>2026-05-06T18:29:46Z</time></trkpt>
<trkpt lat="49.973126" lon="5.290174"><time>2026-05-06T18:39:46Z</time></trkpt>
<trkpt lat="49.973237" lon="5.291419"><time>2026-05-06T18:49:46Z</time></trkpt>
<trkpt lat="49.971967" lon="5.296333"><time>2026-05-06T18:59:46Z</time></trkpt>
<trkpt lat="49.971456" lon="5.304465"><time>2026-05-06T19:09:46Z</time></trkpt>
<trkpt lat="49.971650" lon="5.305152"><time>2026-05-06T19:19:46Z</time></trkpt>
<trkpt lat="49.972215" lon="5.310860"><time>2026-05-06T19:29:46Z</time></trkpt>
<trkpt lat="49.972580" lon="5.312380"><time>2026-05-06T19:39:46Z</time></trkpt>
<trkpt lat="49.972795" lon="5.313113"><time>2026-05-06T19:49:46Z</time></trkpt>
</trkseg></trk>
<trk>
<name>xlblb15</name>
<cmt>v</cmt>
<desc>Libin Chemin n°15 </desc>
<link href="https://chemins.be/libin/chemin/15"/><trkseg>
<trkpt lat="49.972795" lon="5.313113"><time>2026-05-06T19:49:46Z</time></trkpt>
<trkpt lat="49.972657" lon="5.315720"><time>2026-05-06T19:59:46Z</time></trkpt>
<trkpt lat="49.972091" lon="5.318145"><time>2026-05-06T20:09:46Z</time></trkpt>
<trkpt lat="49.971665" lon="5.319188"><time>2026-05-06T20:19:46Z</time></trkpt>
<trkpt lat="49.970842" lon="5.321202"><time>2026-05-06T20:29:46Z</time></trkpt>
<trkpt lat="49.970766" lon="5.321825"><time>2026-05-06T20:39:46Z</time></trkpt>
<trkpt lat="49.970879" lon="5.323058"><time>2026-05-06T20:49:46Z</time></trkpt>
<trkpt lat="49.971242" lon="5.324249"><time>2026-05-06T20:59:46Z</time></trkpt>
</trkseg>
</trk>
<trk>
<name>xlblb16</name>
<cmt>v</cmt>
<desc>Libin Chemin n°16 Rue d'Hatrival</desc>
<link href="https://chemins.be/libin/chemin/16"/><trkseg>
<trkpt lat="49.985849" lon="5.263793"><time>2026-05-06T18:09:46Z</time></trkpt>
<trkpt lat="49.986272" lon="5.268988"><time>2026-05-06T18:19:46Z</time></trkpt>
<trkpt lat="49.986244" lon="5.270774"><time>2026-05-06T18:29:46Z</time></trkpt>
</trkseg></trk>
<trk>
<name>xlblb16</name>
<cmt>r</cmt>
<desc>Libin Chemin n°16 Rue d'Hatrival</desc>
<link href="https://chemins.be/libin/chemin/16"/><trkseg>
<trkpt lat="49.986244" lon="5.270774"><time>2026-05-06T18:29:46Z</time></trkpt>
<trkpt lat="49.987021" lon="5.274695"><time>2026-05-06T18:39:46Z</time></trkpt>
<trkpt lat="49.988806" lon="5.277637"><time>2026-05-06T18:49:46Z</time></trkpt>
<trkpt lat="49.989822" lon="5.279800"><time>2026-05-06T18:59:46Z</time></trkpt>
</trkseg></trk>
<trk>
<name>xlblb16</name>
<cmt>q</cmt>
<desc>Libin Chemin n°16 Rue d'Hatrival</desc>
<link href="https://chemins.be/libin/chemin/16"/><trkseg>
<trkpt lat="49.989822" lon="5.279800"><time>2026-05-06T18:59:46Z</time></trkpt>
<trkpt lat="49.990318" lon="5.280821"><time>2026-05-06T19:09:46Z</time></trkpt>
</trkseg></trk>
<trk>
<name>xlblb16</name>
<cmt>d</cmt>
<desc>Libin Chemin n°16 Rue d'Hatrival</desc>
<link href="https://chemins.be/libin/chemin/16"/><trkseg>
<trkpt lat="49.990318" lon="5.280821"><time>2026-05-06T19:09:46Z</time></trkpt>
<trkpt lat="49.990505" lon="5.281184"><time>2026-05-06T19:19:46Z</time></trkpt>
<trkpt lat="49.990905" lon="5.281613"><time>2026-05-06T19:29:46Z</time></trkpt>
</trkseg></trk>
<trk>
<name>xlblb16</name>
<cmt>q</cmt>
<desc>Libin Chemin n°16 Rue d'Hatrival</desc>
<link href="https://chemins.be/libin/chemin/16"/><trkseg>
<trkpt lat="49.990905" lon="5.281613"><time>2026-05-06T19:29:46Z</time></trkpt>
<trkpt lat="49.990898" lon="5.284080"><time>2026-05-06T19:39:46Z</time></trkpt>
</trkseg></trk>
<trk>
<name>xlblb16</name>
<cmt>r</cmt>
<desc>Libin Chemin n°16 Rue d'Hatrival</desc>
<link href="https://chemins.be/libin/chemin/16"/><trkseg>
<trkpt lat="49.990898" lon="5.284080"><time>2026-05-06T19:39:46Z</time></trkpt>
<trkpt lat="49.991443" lon="5.285507"><time>2026-05-06T19:49:46Z</time></trkpt>
<trkpt lat="49.992602" lon="5.288072"><time>2026-05-06T19:59:46Z</time></trkpt>
</trkseg></trk>
<trk>
<name>xlblb16</name>
<cmt>q</cmt>
<desc>Libin Chemin n°16 Rue d'Hatrival</desc>
<link href="https://chemins.be/libin/chemin/16"/><trkseg>
<trkpt lat="49.992602" lon="5.288072"><time>2026-05-06T19:59:46Z</time></trkpt>
<trkpt lat="49.993553" lon="5.289906"><time>2026-05-06T20:09:46Z</time></trkpt>
<trkpt lat="49.993712" lon="5.291934"><time>2026-05-06T20:19:46Z</time></trkpt>
<trkpt lat="49.994188" lon="5.294294"><time>2026-05-06T20:29:46Z</time></trkpt>
<trkpt lat="49.994940" lon="5.296676"><time>2026-05-06T20:39:46Z</time></trkpt>
<trkpt lat="49.994919" lon="5.297041"><time>2026-05-06T20:49:46Z</time></trkpt>
</trkseg>
</trk>
<trk>
<name>xlblb17</name>
<cmt>v</cmt>
<desc>Libin Chemin n°17 </desc>
<link href="https://chemins.be/libin/chemin/17"/><trkseg>
<trkpt lat="49.993860" lon="5.264935"><time>2026-05-06T18:09:46Z</time></trkpt>
<trkpt lat="49.994063" lon="5.265053"><time>2026-05-06T18:19:46Z</time></trkpt>
<trkpt lat="49.995620" lon="5.267229"><time>2026-05-06T18:29:46Z</time></trkpt>
<trkpt lat="49.996194" lon="5.267838"><time>2026-05-06T18:39:46Z</time></trkpt>
<trkpt lat="49.997264" lon="5.268685"><time>2026-05-06T18:49:46Z</time></trkpt>
<trkpt lat="49.997989" lon="5.270412"><time>2026-05-06T18:59:46Z</time></trkpt>
<trkpt lat="49.999768" lon="5.274167"><time>2026-05-06T19:09:46Z</time></trkpt>
<trkpt lat="50.000908" lon="5.275494"><time>2026-05-06T19:19:46Z</time></trkpt>
<trkpt lat="50.001740" lon="5.276463"><time>2026-05-06T19:29:46Z</time></trkpt>
<trkpt lat="50.003664" lon="5.277214"><time>2026-05-06T19:39:46Z</time></trkpt>
<trkpt lat="50.005416" lon="5.278577"><time>2026-05-06T19:49:46Z</time></trkpt>
<trkpt lat="50.005770" lon="5.279346"><time>2026-05-06T19:59:46Z</time></trkpt>
<trkpt lat="50.006460" lon="5.280380"><time>2026-05-06T20:09:46Z</time></trkpt>
<trkpt lat="50.010040" lon="5.281502"><time>2026-05-06T20:19:46Z</time></trkpt>
<trkpt lat="50.011890" lon="5.282149"><time>2026-05-06T20:29:46Z</time></trkpt>
<trkpt lat="50.014849" lon="5.284159"><time>2026-05-06T20:39:46Z</time></trkpt>
<trkpt lat="50.016083" lon="5.285016"><time>2026-05-06T20:49:46Z</time></trkpt>
<trkpt lat="50.016882" lon="5.285540"><time>2026-05-06T20:59:46Z</time></trkpt>
</trkseg></trk>
<trk>
<name>xlblb17</name>
<cmt>d</cmt>
<desc>Libin Chemin n°17 </desc>
<link href="https://chemins.be/libin/chemin/17"/><trkseg>
<trkpt lat="50.016882" lon="5.285540"><time>2026-05-06T20:59:46Z</time></trkpt>
<trkpt lat="50.017691" lon="5.286539"><time>2026-05-06T21:09:46Z</time></trkpt>
</trkseg></trk>
<trk>
<name>xlblb17</name>
<cmt>v</cmt>
<desc>Libin Chemin n°17 </desc>
<link href="https://chemins.be/libin/chemin/17"/><trkseg>
<trkpt lat="50.017691" lon="5.286539"><time>2026-05-06T21:09:46Z</time></trkpt>
<trkpt lat="50.018467" lon="5.289702"><time>2026-05-06T21:19:46Z</time></trkpt>
<trkpt lat="50.018219" lon="5.291226"><time>2026-05-06T21:29:46Z</time></trkpt>
<trkpt lat="50.017116" lon="5.292942"><time>2026-05-06T21:39:46Z</time></trkpt>
</trkseg>
</trk>
<trk>
<name>xlblb18</name>
<cmt>v</cmt>
<desc>Libin Chemin n°18 </desc>
<link href="https://chemins.be/libin/chemin/18"/><trkseg>
<trkpt lat="50.016804" lon="5.292779"><time>2026-05-06T18:09:46Z</time></trkpt>
<trkpt lat="50.016125" lon="5.293063"><time>2026-05-06T18:19:46Z</time></trkpt>
<trkpt lat="50.013922" lon="5.292088"><time>2026-05-06T18:29:46Z</time></trkpt>
<trkpt lat="50.012699" lon="5.290810"><time>2026-05-06T18:39:46Z</time></trkpt>
<trkpt lat="50.008839" lon="5.289214"><time>2026-05-06T18:49:46Z</time></trkpt>
<trkpt lat="50.007267" lon="5.288570"><time>2026-05-06T18:59:46Z</time></trkpt>
<trkpt lat="50.003949" lon="5.285906"><time>2026-05-06T19:09:46Z</time></trkpt>
<trkpt lat="50.002464" lon="5.284713"><time>2026-05-06T19:19:46Z</time></trkpt>
<trkpt lat="50.001865" lon="5.283435"><time>2026-05-06T19:29:46Z</time></trkpt>
<trkpt lat="50.000619" lon="5.279623"><time>2026-05-06T19:39:46Z</time></trkpt>
<trkpt lat="49.999916" lon="5.279451"><time>2026-05-06T19:49:46Z</time></trkpt>
</trkseg>
</trk>
<trk>
<name>xlblb19</name>
<cmt>v</cmt>
<desc>Libin Chemin n°19 Rue de Poix</desc>
<link href="https://chemins.be/libin/chemin/19"/><trkseg>
<trkpt lat="49.992850" lon="5.247817"><time>2026-05-06T18:09:46Z</time></trkpt>
<trkpt lat="49.995630" lon="5.253192"><time>2026-05-06T18:19:46Z</time></trkpt>
<trkpt lat="49.995775" lon="5.254834"><time>2026-05-06T18:29:46Z</time></trkpt>
<trkpt lat="49.996092" lon="5.256470"><time>2026-05-06T18:39:46Z</time></trkpt>
<trkpt lat="49.996140" lon="5.260209"><time>2026-05-06T18:49:46Z</time></trkpt>
<trkpt lat="49.996472" lon="5.265294"><time>2026-05-06T18:59:46Z</time></trkpt>
<trkpt lat="49.996196" lon="5.267740"><time>2026-05-06T19:09:46Z</time></trkpt>
</trkseg></trk>
<trk>
<name>xlblb19</name>
<cmt>q</cmt>
<desc>Libin Chemin n°19 Rue de Poix</desc>
<link href="https://chemins.be/libin/chemin/19"/><trkseg>
<trkpt lat="49.996196" lon="5.267740"><time>2026-05-06T19:09:46Z</time></trkpt>
<trkpt lat="49.996085" lon="5.268127"><time>2026-05-06T19:19:46Z</time></trkpt>
<trkpt lat="49.996982" lon="5.270122"><time>2026-05-06T19:29:46Z</time></trkpt>
<trkpt lat="49.997820" lon="5.276125"><time>2026-05-06T19:39:46Z</time></trkpt>
</trkseg></trk>
<trk>
<name>xlblb19</name>
<cmt>v</cmt>
<desc>Libin Chemin n°19 Rue de Poix</desc>
<link href="https://chemins.be/libin/chemin/19"/><trkseg>
<trkpt lat="49.997820" lon="5.276125"><time>2026-05-06T19:39:46Z</time></trkpt>
<trkpt lat="49.999248" lon="5.280844"><time>2026-05-06T19:49:46Z</time></trkpt>
</trkseg></trk>
<trk>
<name>xlblb19</name>
<cmt>q</cmt>
<desc>Libin Chemin n°19 Rue de Poix</desc>
<link href="https://chemins.be/libin/chemin/19"/><trkseg>
<trkpt lat="49.999248" lon="5.280844"><time>2026-05-06T19:49:46Z</time></trkpt>
<trkpt lat="49.999354" lon="5.281731"><time>2026-05-06T19:59:46Z</time></trkpt>
<trkpt lat="49.999065" lon="5.284220"><time>2026-05-06T20:09:46Z</time></trkpt>
<trkpt lat="49.999313" lon="5.285679"><time>2026-05-06T20:19:46Z</time></trkpt>
<trkpt lat="50.002586" lon="5.289556"><time>2026-05-06T20:29:46Z</time></trkpt>
<trkpt lat="50.003845" lon="5.292102"><time>2026-05-06T20:39:46Z</time></trkpt>
<trkpt lat="50.005252" lon="5.293475"><time>2026-05-06T20:49:46Z</time></trkpt>
<trkpt lat="50.005731" lon="5.294421"><time>2026-05-06T20:59:46Z</time></trkpt>
</trkseg></trk>
<trk>
<name>xlblb19</name>
<cmt>v</cmt>
<desc>Libin Chemin n°19 Rue de Poix</desc>
<link href="https://chemins.be/libin/chemin/19"/><trkseg>
<trkpt lat="50.005731" lon="5.294421"><time>2026-05-06T20:59:46Z</time></trkpt>
<trkpt lat="50.005757" lon="5.294678"><time>2026-05-06T21:09:46Z</time></trkpt>
<trkpt lat="50.006514" lon="5.296753"><time>2026-05-06T21:19:46Z</time></trkpt>
<trkpt lat="50.007061" lon="5.300251"><time>2026-05-06T21:29:46Z</time></trkpt>
</trkseg></trk>
<trk>
<name>xlblb19</name>
<cmt>q</cmt>
<desc>Libin Chemin n°19 Rue de Poix</desc>
<link href="https://chemins.be/libin/chemin/19"/><trkseg>
<trkpt lat="50.007061" lon="5.300251"><time>2026-05-06T21:29:46Z</time></trkpt>
<trkpt lat="50.007341" lon="5.302096"><time>2026-05-06T21:39:46Z</time></trkpt>
<trkpt lat="50.007544" lon="5.303076"><time>2026-05-06T21:49:46Z</time></trkpt>
<trkpt lat="50.006997" lon="5.303584"><time>2026-05-06T21:59:46Z</time></trkpt>
<trkpt lat="50.006845" lon="5.304928"><time>2026-05-06T22:09:46Z</time></trkpt>
</trkseg>
</trk>
<trk>
<name>xlblb20</name>
<cmt>r</cmt>
<desc>Libin Chemin n°20 </desc>
<link href="https://chemins.be/libin/chemin/20"/><trkseg>
<trkpt lat="49.992223" lon="5.267751"><time>2026-05-06T18:09:46Z</time></trkpt>
<trkpt lat="49.992181" lon="5.270734"><time>2026-05-06T18:19:46Z</time></trkpt>
<trkpt lat="49.992347" lon="5.273695"><time>2026-05-06T18:29:46Z</time></trkpt>
<trkpt lat="49.991975" lon="5.275669"><time>2026-05-06T18:39:46Z</time></trkpt>
<trkpt lat="49.991147" lon="5.279016"><time>2026-05-06T18:49:46Z</time></trkpt>
<trkpt lat="49.990912" lon="5.281634"><time>2026-05-06T18:59:46Z</time></trkpt>
</trkseg>
</trk>
<trk>
<name>xlblb21</name>
<cmt>v</cmt>
<desc>Libin Chemin n°21 </desc>
<link href="https://chemins.be/libin/chemin/21"/><trkseg>
<trkpt lat="49.991614" lon="5.260963"><time>2026-05-06T18:09:46Z</time></trkpt>
<trkpt lat="49.993308" lon="5.261272"><time>2026-05-06T18:19:46Z</time></trkpt>
</trkseg>
</trk>
<trk>
<name>xlblb22</name>
<cmt>v</cmt>
<desc>Libin Chemin/sentier n°22 Voie Gamby</desc>
<link href="https://chemins.be/libin/chemin/22"/><trkseg>
<trkpt lat="49.982980" lon="5.262573"><time>2026-05-06T18:09:46Z</time></trkpt>
<trkpt lat="49.983454" lon="5.262264"><time>2026-05-06T18:19:46Z</time></trkpt>
<trkpt lat="49.983998" lon="5.262079"><time>2026-05-06T18:29:46Z</time></trkpt>
</trkseg></trk>
<trk>
<name>xlblb22</name>
<cmt>q</cmt>
<desc>Libin Chemin/sentier n°22 Voie Gamby</desc>
<link href="https://chemins.be/libin/chemin/22"/><trkseg>
<trkpt lat="49.983998" lon="5.262079"><time>2026-05-06T18:29:46Z</time></trkpt>
<trkpt lat="49.984970" lon="5.262542"><time>2026-05-06T18:39:46Z</time></trkpt>
<trkpt lat="49.985842" lon="5.263710"><time>2026-05-06T18:49:46Z</time></trkpt>
</trkseg></trk>
<trk>
<name>xlblb22</name>
<cmt>r</cmt>
<desc>Libin Chemin/sentier n°22 Voie Gamby</desc>
<link href="https://chemins.be/libin/chemin/22"/><trkseg>
<trkpt lat="49.985842" lon="5.263710"><time>2026-05-06T18:49:46Z</time></trkpt>
<trkpt lat="49.988478" lon="5.267176"><time>2026-05-06T18:59:46Z</time></trkpt>
<trkpt lat="49.989408" lon="5.267278"><time>2026-05-06T19:09:46Z</time></trkpt>
</trkseg></trk>
<trk>
<name>xlblb22</name>
<cmt>q</cmt>
<desc>Libin Chemin/sentier n°22 Voie Gamby</desc>
<link href="https://chemins.be/libin/chemin/22"/><trkseg>
<trkpt lat="49.989408" lon="5.267278"><time>2026-05-06T19:09:46Z</time></trkpt>
<trkpt lat="49.992243" lon="5.267761"><time>2026-05-06T19:19:46Z</time></trkpt>
</trkseg></trk>
<trk>
<name>xlblb22</name>
<cmt>r</cmt>
<desc>Libin Chemin/sentier n°22 Voie Gamby</desc>
<link href="https://chemins.be/libin/chemin/22"/><trkseg>
<trkpt lat="49.992243" lon="5.267761"><time>2026-05-06T19:19:46Z</time></trkpt>
<trkpt lat="49.994544" lon="5.267735"><time>2026-05-06T19:29:46Z</time></trkpt>
</trkseg></trk>
<trk>
<name>xlblb22</name>
<cmt>q</cmt>
<desc>Libin Chemin/sentier n°22 Voie Gamby</desc>
<link href="https://chemins.be/libin/chemin/22"/><trkseg>
<trkpt lat="49.994544" lon="5.267735"><time>2026-05-06T19:29:46Z</time></trkpt>
<trkpt lat="49.996100" lon="5.268010"><time>2026-05-06T19:39:46Z</time></trkpt>
<trkpt lat="49.996199" lon="5.267744"><time>2026-05-06T19:49:46Z</time></trkpt>
<trkpt lat="49.997307" lon="5.268652"><time>2026-05-06T19:59:46Z</time></trkpt>
<trkpt lat="49.998202" lon="5.268738"><time>2026-05-06T20:09:46Z</time></trkpt>
</trkseg></trk>
<trk>
<name>xlblb22</name>
<cmt>v</cmt>
<desc>Libin Chemin/sentier n°22 Voie Gamby</desc>
<link href="https://chemins.be/libin/chemin/22"/><trkseg>
<trkpt lat="49.998202" lon="5.268738"><time>2026-05-06T20:09:46Z</time></trkpt>
<trkpt lat="49.998885" lon="5.270154"><time>2026-05-06T20:19:46Z</time></trkpt>
<trkpt lat="50.000616" lon="5.269967"><time>2026-05-06T20:29:46Z</time></trkpt>
<trkpt lat="50.004706" lon="5.268695"><time>2026-05-06T20:39:46Z</time></trkpt>
</trkseg>
</trk>
<trk>
<name>xlblb23</name>
<cmt>q</cmt>
<desc>Libin Chemin n°23 </desc>
<link href="https://chemins.be/libin/chemin/23"/><trkseg>
<trkpt lat="49.996071" lon="5.268095"><time>2026-05-06T18:09:46Z</time></trkpt>
<trkpt lat="49.993050" lon="5.273030"><time>2026-05-06T18:19:46Z</time></trkpt>
<trkpt lat="49.991946" lon="5.275648"><time>2026-05-06T18:29:46Z</time></trkpt>
</trkseg>
</trk>
<trk>
<name>xlblb25</name>
<cmt>q</cmt>
<desc>Libin Chemin n°25 trace du poste 15 / Rue d'Hatrival</desc>
<link href="https://chemins.be/libin/chemin/25"/><trkseg>
<trkpt lat="49.964806" lon="5.288927"><time>2026-05-06T18:09:46Z</time></trkpt>
<trkpt lat="49.966427" lon="5.288831"><time>2026-05-06T18:19:46Z</time></trkpt>
<trkpt lat="49.967840" lon="5.287396"><time>2026-05-06T18:29:46Z</time></trkpt>
<trkpt lat="49.969372" lon="5.287085"><time>2026-05-06T18:39:46Z</time></trkpt>
<trkpt lat="49.970787" lon="5.288705"><time>2026-05-06T18:49:46Z</time></trkpt>
</trkseg></trk>
<trk>
<name>xlblb25</name>
<cmt>v</cmt>
<desc>Libin Chemin n°25 trace du poste 15 / Rue d'Hatrival</desc>
<link href="https://chemins.be/libin/chemin/25"/><trkseg>
<trkpt lat="49.970787" lon="5.288705"><time>2026-05-06T18:49:46Z</time></trkpt>
<trkpt lat="49.971643" lon="5.290292"><time>2026-05-06T18:59:46Z</time></trkpt>
<trkpt lat="49.972988" lon="5.290174"><time>2026-05-06T19:09:46Z</time></trkpt>
<trkpt lat="49.974687" lon="5.288103"><time>2026-05-06T19:19:46Z</time></trkpt>
<trkpt lat="49.976735" lon="5.286570"><time>2026-05-06T19:29:46Z</time></trkpt>
<trkpt lat="49.977509" lon="5.286545"><time>2026-05-06T19:39:46Z</time></trkpt>
<trkpt lat="49.978032" lon="5.286755"><time>2026-05-06T19:49:46Z</time></trkpt>
<trkpt lat="49.978709" lon="5.287625"><time>2026-05-06T19:59:46Z</time></trkpt>
<trkpt lat="49.979919" lon="5.287415"><time>2026-05-06T20:09:46Z</time></trkpt>
<trkpt lat="49.981729" lon="5.286535"><time>2026-05-06T20:19:46Z</time></trkpt>
<trkpt lat="49.981969" lon="5.286415"><time>2026-05-06T20:29:46Z</time></trkpt>
<trkpt lat="49.984822" lon="5.286185"><time>2026-05-06T20:39:46Z</time></trkpt>
<trkpt lat="49.985709" lon="5.286025"><time>2026-05-06T20:49:46Z</time></trkpt>
<trkpt lat="49.987119" lon="5.285445"><time>2026-05-06T20:59:46Z</time></trkpt>
<trkpt lat="49.990799" lon="5.283855"><time>2026-05-06T21:09:46Z</time></trkpt>
<trkpt lat="49.991419" lon="5.285245"><time>2026-05-06T21:19:46Z</time></trkpt>
<trkpt lat="49.991469" lon="5.285405"><time>2026-05-06T21:29:46Z</time></trkpt>
<trkpt lat="49.993469" lon="5.286775"><time>2026-05-06T21:39:46Z</time></trkpt>
<trkpt lat="49.994699" lon="5.286715"><time>2026-05-06T21:49:46Z</time></trkpt>
<trkpt lat="49.996440" lon="5.286695"><time>2026-05-06T21:59:46Z</time></trkpt>
<trkpt lat="49.998370" lon="5.287645"><time>2026-05-06T22:09:46Z</time></trkpt>
<trkpt lat="49.999030" lon="5.287895"><time>2026-05-06T22:19:46Z</time></trkpt>
<trkpt lat="49.999340" lon="5.287885"><time>2026-05-06T22:29:46Z</time></trkpt>
<trkpt lat="49.999770" lon="5.287975"><time>2026-05-06T22:39:46Z</time></trkpt>
<trkpt lat="50.000180" lon="5.287845"><time>2026-05-06T22:49:46Z</time></trkpt>
<trkpt lat="50.000390" lon="5.287945"><time>2026-05-06T22:59:46Z</time></trkpt>
<trkpt lat="50.000780" lon="5.287965"><time>2026-05-06T23:09:46Z</time></trkpt>
<trkpt lat="50.001267" lon="5.288081"><time>2026-05-06T23:19:46Z</time></trkpt>
</trkseg></trk>
<trk>
<name>xlblb25</name>
<cmt>d</cmt>
<desc>Libin Chemin n°25 trace du poste 15 / Rue d'Hatrival</desc>
<link href="https://chemins.be/libin/chemin/25"/><trkseg>
<trkpt lat="50.001267" lon="5.288081"><time>2026-05-06T23:19:46Z</time></trkpt>
<trkpt lat="50.003083" lon="5.288190"><time>2026-05-06T23:29:46Z</time></trkpt>
</trkseg></trk>
<trk>
<name>xlblb25</name>
<cmt>v</cmt>
<desc>Libin Chemin n°25 trace du poste 15 / Rue d'Hatrival</desc>
<link href="https://chemins.be/libin/chemin/25"/><trkseg>
<trkpt lat="50.003083" lon="5.288190"><time>2026-05-06T23:29:46Z</time></trkpt>
<trkpt lat="50.004297" lon="5.289735"><time>2026-05-06T23:39:46Z</time></trkpt>
<trkpt lat="50.006415" lon="5.289838"><time>2026-05-06T23:49:46Z</time></trkpt>
<trkpt lat="50.007772" lon="5.288830"><time>2026-05-06T23:59:46Z</time></trkpt>
<trkpt lat="50.008875" lon="5.288152"><time>2026-05-07T00:09:46Z</time></trkpt>
<trkpt lat="50.009681" lon="5.287348"><time>2026-05-07T00:19:46Z</time></trkpt>
<trkpt lat="50.013310" lon="5.285860"><time>2026-05-07T00:29:46Z</time></trkpt>
<trkpt lat="50.015047" lon="5.286075"><time>2026-05-07T00:39:46Z</time></trkpt>
<trkpt lat="50.016994" lon="5.285735"><time>2026-05-07T00:49:46Z</time></trkpt>
</trkseg>
</trk>
<trk>
<name>xlblb26</name>
<cmt>r</cmt>
<desc>Libin Chemin n°26 </desc>
<link href="https://chemins.be/libin/chemin/26"/><trkseg>
<trkpt lat="49.984759" lon="5.311589"><time>2026-05-06T18:09:46Z</time></trkpt>
<trkpt lat="49.981944" lon="5.312308"><time>2026-05-06T18:19:46Z</time></trkpt>
<trkpt lat="49.979515" lon="5.314422"><time>2026-05-06T18:29:46Z</time></trkpt>
<trkpt lat="49.974182" lon="5.314797"><time>2026-05-06T18:39:46Z</time></trkpt>
<trkpt lat="49.972957" lon="5.313338"><time>2026-05-06T18:49:46Z</time></trkpt>
<trkpt lat="49.972472" lon="5.312151"><time>2026-05-06T18:59:46Z</time></trkpt>
</trkseg></trk>
<trk>
<name>xlblb26</name>
<cmt>v</cmt>
<desc>Libin Chemin n°26 </desc>
<link href="https://chemins.be/libin/chemin/26"/><trkseg>
<trkpt lat="49.972472" lon="5.312151"><time>2026-05-06T18:59:46Z</time></trkpt>
<trkpt lat="49.970482" lon="5.312646"><time>2026-05-06T19:09:46Z</time></trkpt>
<trkpt lat="49.968188" lon="5.313216"><time>2026-05-06T19:19:46Z</time></trkpt>
<trkpt lat="49.964540" lon="5.309698"><time>2026-05-06T19:29:46Z</time></trkpt>
<trkpt lat="49.960522" lon="5.304330"><time>2026-05-06T19:39:46Z</time></trkpt>
<trkpt lat="49.958736" lon="5.296977"><time>2026-05-06T19:49:46Z</time></trkpt>
<trkpt lat="49.957848" lon="5.296128"><time>2026-05-06T19:59:46Z</time></trkpt>
</trkseg>
</trk>
<trk>
<name>xlblb27</name>
<cmt>v</cmt>
<desc>Libin Chemin n°27 </desc>
<link href="https://chemins.be/libin/chemin/27"/><trkseg>
<trkpt lat="49.957971" lon="5.312104"><time>2026-05-06T18:09:46Z</time></trkpt>
<trkpt lat="49.958413" lon="5.312490"><time>2026-05-06T18:19:46Z</time></trkpt>
<trkpt lat="49.958703" lon="5.313649"><time>2026-05-06T18:29:46Z</time></trkpt>
<trkpt lat="49.958923" lon="5.316632"><time>2026-05-06T18:39:46Z</time></trkpt>
<trkpt lat="49.960759" lon="5.320623"><time>2026-05-06T18:49:46Z</time></trkpt>
<trkpt lat="49.961670" lon="5.321932"><time>2026-05-06T18:59:46Z</time></trkpt>
<trkpt lat="49.961864" lon="5.323069"><time>2026-05-06T19:09:46Z</time></trkpt>
<trkpt lat="49.962954" lon="5.327060"><time>2026-05-06T19:19:46Z</time></trkpt>
<trkpt lat="49.963773" lon="5.327636"><time>2026-05-06T19:29:46Z</time></trkpt>
</trkseg></trk>
<trk>
<name>xlblb27</name>
<cmt>s</cmt>
<desc>Libin Chemin n°27 </desc>
<link href="https://chemins.be/libin/chemin/27"/><trkseg>
<trkpt lat="49.963773" lon="5.327636"><time>2026-05-06T19:29:46Z</time></trkpt>
<trkpt lat="49.964413" lon="5.329087"><time>2026-05-06T19:39:46Z</time></trkpt>
<trkpt lat="49.965114" lon="5.329799"><time>2026-05-06T19:49:46Z</time></trkpt>
<trkpt lat="49.966555" lon="5.330254"><time>2026-05-06T19:59:46Z</time></trkpt>
</trkseg>
</trk>
<trk>
<name>xlblb28</name>
<cmt>v</cmt>
<desc>Libin Chemin n°28 </desc>
<link href="https://chemins.be/libin/chemin/28"/><trkseg>
<trkpt lat="49.957729" lon="5.285443"><time>2026-05-06T18:09:46Z</time></trkpt>
<trkpt lat="49.959068" lon="5.291827"><time>2026-05-06T18:19:46Z</time></trkpt>
<trkpt lat="49.959669" lon="5.292706"><time>2026-05-06T18:29:46Z</time></trkpt>
<trkpt lat="49.962581" lon="5.294434"><time>2026-05-06T18:39:46Z</time></trkpt>
<trkpt lat="49.963210" lon="5.294766"><time>2026-05-06T18:49:46Z</time></trkpt>
</trkseg>
</trk>
<trk>
<name>xlblb29</name>
<cmt>q</cmt>
<desc>Libin Chemin n°29 </desc>
<link href="https://chemins.be/libin/chemin/29"/><trkseg>
<trkpt lat="49.968693" lon="5.284589"><time>2026-05-06T18:09:46Z</time></trkpt>
<trkpt lat="49.967777" lon="5.287593"><time>2026-05-06T18:19:46Z</time></trkpt>
</trkseg></trk>
<trk>
<name>xlblb29</name>
<cmt>v</cmt>
<desc>Libin Chemin n°29 </desc>
<link href="https://chemins.be/libin/chemin/29"/><trkseg>
<trkpt lat="49.967777" lon="5.287593"><time>2026-05-06T18:19:46Z</time></trkpt>
<trkpt lat="49.967380" lon="5.290224"><time>2026-05-06T18:29:46Z</time></trkpt>
<trkpt lat="49.966496" lon="5.296983"><time>2026-05-06T18:39:46Z</time></trkpt>
<trkpt lat="49.966452" lon="5.303197"><time>2026-05-06T18:49:46Z</time></trkpt>
<trkpt lat="49.965977" lon="5.304193"><time>2026-05-06T18:59:46Z</time></trkpt>
<trkpt lat="49.966098" lon="5.305377"><time>2026-05-06T19:09:46Z</time></trkpt>
<trkpt lat="49.964564" lon="5.309634"><time>2026-05-06T19:19:46Z</time></trkpt>
</trkseg>
</trk>
<trk>
<name>xlblb3</name>
<cmt>v</cmt>
<desc>Libin Chemin n°3 </desc>
<link href="https://chemins.be/libin/chemin/3"/><trkseg>
<trkpt lat="49.985119" lon="5.278995"><time>2026-05-06T18:09:46Z</time></trkpt>
<trkpt lat="49.985209" lon="5.282325"><time>2026-05-06T18:19:46Z</time></trkpt>
</trkseg></trk>
<trk>
<name>xlblb3</name>
<cmt>q</cmt>
<desc>Libin Chemin n°3 </desc>
<link href="https://chemins.be/libin/chemin/3"/><trkseg>
<trkpt lat="49.985209" lon="5.282325"><time>2026-05-06T18:19:46Z</time></trkpt>
<trkpt lat="49.984849" lon="5.286115"><time>2026-05-06T18:29:46Z</time></trkpt>
<trkpt lat="49.984749" lon="5.292785"><time>2026-05-06T18:39:46Z</time></trkpt>
<trkpt lat="49.984659" lon="5.294515"><time>2026-05-06T18:49:46Z</time></trkpt>
</trkseg></trk>
<trk>
<name>xlblb3</name>
<cmt>v</cmt>
<desc>Libin Chemin n°3 </desc>
<link href="https://chemins.be/libin/chemin/3"/><trkseg>
<trkpt lat="49.984659" lon="5.294515"><time>2026-05-06T18:49:46Z</time></trkpt>
<trkpt lat="49.983979" lon="5.297265"><time>2026-05-06T18:59:46Z</time></trkpt>
<trkpt lat="49.984119" lon="5.299075"><time>2026-05-06T19:09:46Z</time></trkpt>
<trkpt lat="49.984129" lon="5.299075"><time>2026-05-06T19:19:46Z</time></trkpt>
<trkpt lat="49.984119" lon="5.299065"><time>2026-05-06T19:29:46Z</time></trkpt>
<trkpt lat="49.983759" lon="5.302696"><time>2026-05-06T19:39:46Z</time></trkpt>
<trkpt lat="49.982899" lon="5.304116"><time>2026-05-06T19:49:46Z</time></trkpt>
<trkpt lat="49.981648" lon="5.304986"><time>2026-05-06T19:59:46Z</time></trkpt>
<trkpt lat="49.982099" lon="5.305786"><time>2026-05-06T20:09:46Z</time></trkpt>
<trkpt lat="49.981769" lon="5.307996"><time>2026-05-06T20:19:46Z</time></trkpt>
<trkpt lat="49.981999" lon="5.312386"><time>2026-05-06T20:29:46Z</time></trkpt>
<trkpt lat="49.983079" lon="5.316676"><time>2026-05-06T20:39:46Z</time></trkpt>
<trkpt lat="49.983119" lon="5.318026"><time>2026-05-06T20:49:46Z</time></trkpt>
<trkpt lat="49.982419" lon="5.319466"><time>2026-05-06T20:59:46Z</time></trkpt>
</trkseg>
</trk>
<trk>
<name>xlblb30</name>
<cmt>v</cmt>
<desc>Libin Chemin n°30 </desc>
<link href="https://chemins.be/libin/chemin/30"/><trkseg>
<trkpt lat="49.971484" lon="5.304358"><time>2026-05-06T18:09:46Z</time></trkpt>
<trkpt lat="49.971070" lon="5.309422"><time>2026-05-06T18:19:46Z</time></trkpt>
<trkpt lat="49.970493" lon="5.312553"><time>2026-05-06T18:29:46Z</time></trkpt>
<trkpt lat="49.969985" lon="5.314424"><time>2026-05-06T18:39:46Z</time></trkpt>
<trkpt lat="49.968704" lon="5.316192"><time>2026-05-06T18:49:46Z</time></trkpt>
<trkpt lat="49.968296" lon="5.317754"><time>2026-05-06T18:59:46Z</time></trkpt>
<trkpt lat="49.967618" lon="5.319063"><time>2026-05-06T19:09:46Z</time></trkpt>
<trkpt lat="49.967594" lon="5.319273"><time>2026-05-06T19:19:46Z</time></trkpt>
</trkseg>
</trk>
<trk>
<name>xlblb31</name>
<cmt>d</cmt>
<desc>Libin Chemin n°31 </desc>
<link href="https://chemins.be/libin/chemin/31"/><trkseg>
<trkpt lat="49.972806" lon="5.314929"><time>2026-05-06T18:09:46Z</time></trkpt>
<trkpt lat="49.974157" lon="5.317953"><time>2026-05-06T18:19:46Z</time></trkpt>
</trkseg></trk>
<trk>
<name>xlblb31</name>
<cmt>v</cmt>
<desc>Libin Chemin n°31 </desc>
<link href="https://chemins.be/libin/chemin/31"/><trkseg>
<trkpt lat="49.974157" lon="5.317953"><time>2026-05-06T18:19:46Z</time></trkpt>
<trkpt lat="49.974068" lon="5.318913"><time>2026-05-06T18:29:46Z</time></trkpt>
<trkpt lat="49.974064" lon="5.319457"><time>2026-05-06T18:39:46Z</time></trkpt>
<trkpt lat="49.974071" lon="5.319625"><time>2026-05-06T18:49:46Z</time></trkpt>
<trkpt lat="49.974068" lon="5.319945"><time>2026-05-06T18:59:46Z</time></trkpt>
<trkpt lat="49.974197" lon="5.320659"><time>2026-05-06T19:09:46Z</time></trkpt>
<trkpt lat="49.974294" lon="5.320939"><time>2026-05-06T19:19:46Z</time></trkpt>
<trkpt lat="49.974311" lon="5.321010"><time>2026-05-06T19:29:46Z</time></trkpt>
<trkpt lat="49.974355" lon="5.321150"><time>2026-05-06T19:39:46Z</time></trkpt>
<trkpt lat="49.975012" lon="5.322167"><time>2026-05-06T19:49:46Z</time></trkpt>
</trkseg>
</trk>
<trk>
<name>xlblb32</name>
<cmt>q</cmt>
<desc>Libin Sentier n°32 Rue Basses Voies</desc>
<link href="https://chemins.be/libin/sentier/32"/><trkseg>
<trkpt lat="49.978253" lon="5.291968"><time>2026-05-06T18:09:46Z</time></trkpt>
<trkpt lat="49.978212" lon="5.289135"><time>2026-05-06T18:19:46Z</time></trkpt>
<trkpt lat="49.978157" lon="5.286903"><time>2026-05-06T18:29:46Z</time></trkpt>
<trkpt lat="49.978260" lon="5.284886"><time>2026-05-06T18:39:46Z</time></trkpt>
<trkpt lat="49.977819" lon="5.282178"><time>2026-05-06T18:49:46Z</time></trkpt>
</trkseg></trk>
<trk>
<name>xlblb32</name>
<cmt>r</cmt>
<desc>Libin Sentier n°32 Rue Basses Voies</desc>
<link href="https://chemins.be/libin/sentier/32"/><trkseg>
<trkpt lat="49.977819" lon="5.282178"><time>2026-05-06T18:49:46Z</time></trkpt>
<trkpt lat="49.978166" lon="5.278427"><time>2026-05-06T18:59:46Z</time></trkpt>
<trkpt lat="49.978105" lon="5.273770"><time>2026-05-06T19:09:46Z</time></trkpt>
<trkpt lat="49.978534" lon="5.269510"><time>2026-05-06T19:19:46Z</time></trkpt>
<trkpt lat="49.978402" lon="5.267937"><time>2026-05-06T19:29:46Z</time></trkpt>
<trkpt lat="49.978483" lon="5.264042"><time>2026-05-06T19:39:46Z</time></trkpt>
</trkseg>
</trk>
<trk>
<name>xlblb33</name>
<cmt>r</cmt>
<desc>Libin Sentier n°33 Rue Basses Voies</desc>
<link href="https://chemins.be/libin/sentier/33"/><trkseg>
<trkpt lat="49.977797" lon="5.282622"><time>2026-05-06T18:09:46Z</time></trkpt>
<trkpt lat="49.977604" lon="5.284193"><time>2026-05-06T18:19:46Z</time></trkpt>
<trkpt lat="49.977355" lon="5.285678"><time>2026-05-06T18:29:46Z</time></trkpt>
<trkpt lat="49.976682" lon="5.286588"><time>2026-05-06T18:39:46Z</time></trkpt>
</trkseg>
</trk>
<trk>
<name>xlblb34</name>
<cmt>q</cmt>
<desc>Libin Chemin n°34 </desc>
<link href="https://chemins.be/libin/chemin/34"/><trkseg>
<trkpt lat="49.982289" lon="5.256304"><time>2026-05-06T18:09:46Z</time></trkpt>
<trkpt lat="49.982323" lon="5.256840"><time>2026-05-06T18:19:46Z</time></trkpt>
<trkpt lat="49.982972" lon="5.256990"><time>2026-05-06T18:29:46Z</time></trkpt>
</trkseg>
</trk>
<trk>
<name>xlblb35</name>
<cmt>r</cmt>
<desc>Libin Sentier n°35 </desc>
<link href="https://chemins.be/libin/sentier/35"/><trkseg>
<trkpt lat="49.985235" lon="5.279434"><time>2026-05-06T18:09:46Z</time></trkpt>
<trkpt lat="49.986653" lon="5.282644"><time>2026-05-06T18:19:46Z</time></trkpt>
<trkpt lat="49.987061" lon="5.285442"><time>2026-05-06T18:29:46Z</time></trkpt>
</trkseg>
</trk>
<trk>
<name>xlblb36</name>
<cmt>v</cmt>
<desc>Libin Chemin n°36 </desc>
<link href="https://chemins.be/libin/chemin/36"/><trkseg>
<trkpt lat="49.994986" lon="5.296703"><time>2026-05-06T18:09:46Z</time></trkpt>
<trkpt lat="49.995193" lon="5.296800"><time>2026-05-06T18:19:46Z</time></trkpt>
<trkpt lat="49.995783" lon="5.296349"><time>2026-05-06T18:29:46Z</time></trkpt>
<trkpt lat="49.997640" lon="5.297888"><time>2026-05-06T18:39:46Z</time></trkpt>
<trkpt lat="49.998061" lon="5.298489"><time>2026-05-06T18:49:46Z</time></trkpt>
<trkpt lat="49.998543" lon="5.299380"><time>2026-05-06T18:59:46Z</time></trkpt>
<trkpt lat="49.998626" lon="5.299573"><time>2026-05-06T19:09:46Z</time></trkpt>
<trkpt lat="49.999702" lon="5.300517"><time>2026-05-06T19:19:46Z</time></trkpt>
<trkpt lat="50.000309" lon="5.301676"><time>2026-05-06T19:29:46Z</time></trkpt>
<trkpt lat="50.000605" lon="5.303543"><time>2026-05-06T19:39:46Z</time></trkpt>
<trkpt lat="50.000578" lon="5.304508"><time>2026-05-06T19:49:46Z</time></trkpt>
<trkpt lat="50.000895" lon="5.305613"><time>2026-05-06T19:59:46Z</time></trkpt>
<trkpt lat="50.000792" lon="5.306300"><time>2026-05-06T20:09:46Z</time></trkpt>
<trkpt lat="50.000964" lon="5.307094"><time>2026-05-06T20:19:46Z</time></trkpt>
<trkpt lat="50.001329" lon="5.308381"><time>2026-05-06T20:29:46Z</time></trkpt>
</trkseg></trk>
<trk>
<name>xlblb36</name>
<cmt>s</cmt>
<desc>Libin Chemin n°36 </desc>
<link href="https://chemins.be/libin/chemin/36"/><trkseg>
<trkpt lat="50.001329" lon="5.308381"><time>2026-05-06T20:29:46Z</time></trkpt>
<trkpt lat="50.001647" lon="5.309765"><time>2026-05-06T20:39:46Z</time></trkpt>
</trkseg>
</trk>
<trk>
<name>xlblb37</name>
<cmt>d</cmt>
<desc>Libin Chemin n°37 </desc>
<link href="https://chemins.be/libin/chemin/37"/><trkseg>
<trkpt lat="49.994657" lon="5.286720"><time>2026-05-06T18:09:46Z</time></trkpt>
<trkpt lat="49.993905" lon="5.286119"><time>2026-05-06T18:19:46Z</time></trkpt>
<trkpt lat="49.991608" lon="5.282407"><time>2026-05-06T18:29:46Z</time></trkpt>
<trkpt lat="49.990905" lon="5.281645"><time>2026-05-06T18:39:46Z</time></trkpt>
</trkseg>
</trk>
<trk>
<name>xlblb38</name>
<cmt>q</cmt>
<desc>Libin Sentier n°38 Le Dossay</desc>
<link href="https://chemins.be/libin/sentier/38"/><trkseg>
<trkpt lat="50.005754" lon="5.294430"><time>2026-05-06T18:09:46Z</time></trkpt>
<trkpt lat="50.006009" lon="5.294634"><time>2026-05-06T18:19:46Z</time></trkpt>
<trkpt lat="50.006951" lon="5.295337"><time>2026-05-06T18:29:46Z</time></trkpt>
<trkpt lat="50.007860" lon="5.295223"><time>2026-05-06T18:39:46Z</time></trkpt>
</trkseg></trk>
<trk>
<name>xlblb38</name>
<cmt>v</cmt>
<desc>Libin Sentier n°38 Le Dossay</desc>
<link href="https://chemins.be/libin/sentier/38"/><trkseg>
<trkpt lat="50.007860" lon="5.295223"><time>2026-05-06T18:39:46Z</time></trkpt>
<trkpt lat="50.008357" lon="5.295773"><time>2026-05-06T18:49:46Z</time></trkpt>
<trkpt lat="50.009254" lon="5.296345"><time>2026-05-06T18:59:46Z</time></trkpt>
<trkpt lat="50.009786" lon="5.296660"><time>2026-05-06T19:09:46Z</time></trkpt>
<trkpt lat="50.010384" lon="5.296674"><time>2026-05-06T19:19:46Z</time></trkpt>
<trkpt lat="50.011092" lon="5.296674"><time>2026-05-06T19:29:46Z</time></trkpt>
<trkpt lat="50.011369" lon="5.296557"><time>2026-05-06T19:39:46Z</time></trkpt>
</trkseg></trk>
<trk>
<name>xlblb38</name>
<cmt>q</cmt>
<desc>Libin Sentier n°38 Le Dossay</desc>
<link href="https://chemins.be/libin/sentier/38"/><trkseg>
<trkpt lat="50.011369" lon="5.296557"><time>2026-05-06T19:39:46Z</time></trkpt>
<trkpt lat="50.012315" lon="5.296274"><time>2026-05-06T19:49:46Z</time></trkpt>
<trkpt lat="50.013211" lon="5.295251"><time>2026-05-06T19:59:46Z</time></trkpt>
</trkseg>
</trk>
<trk>
<name>xlblb39</name>
<cmt>v</cmt>
<desc>Libin Sentier n°39 </desc>
<link href="https://chemins.be/libin/sentier/39"/><trkseg>
<trkpt lat="50.017016" lon="5.285740"><time>2026-05-06T18:09:46Z</time></trkpt>
<trkpt lat="50.019151" lon="5.285800"><time>2026-05-06T18:19:46Z</time></trkpt>
<trkpt lat="50.020072" lon="5.285260"><time>2026-05-06T18:29:46Z</time></trkpt>
<trkpt lat="50.020320" lon="5.285277"><time>2026-05-06T18:39:46Z</time></trkpt>
<trkpt lat="50.020629" lon="5.285672"><time>2026-05-06T18:49:46Z</time></trkpt>
<trkpt lat="50.020072" lon="5.287345"><time>2026-05-06T18:59:46Z</time></trkpt>
<trkpt lat="50.020309" lon="5.287955"><time>2026-05-06T19:09:46Z</time></trkpt>
<trkpt lat="50.020816" lon="5.287980"><time>2026-05-06T19:19:46Z</time></trkpt>
<trkpt lat="50.021390" lon="5.287483"><time>2026-05-06T19:29:46Z</time></trkpt>
</trkseg>
</trk>
<trk>
<name>xlblb40</name>
<cmt>s</cmt>
<desc>Libin Chemin n°40 Rue de Libin</desc>
<link href="https://chemins.be/libin/chemin/40"/><trkseg>
<trkpt lat="50.016199" lon="5.267644"><time>2026-05-06T18:09:46Z</time></trkpt>
<trkpt lat="50.015758" lon="5.269071"><time>2026-05-06T18:19:46Z</time></trkpt>
</trkseg></trk>
<trk>
<name>xlblb40</name>
<cmt>r</cmt>
<desc>Libin Chemin n°40 Rue de Libin</desc>
<link href="https://chemins.be/libin/chemin/40"/><trkseg>
<trkpt lat="50.015758" lon="5.269071"><time>2026-05-06T18:19:46Z</time></trkpt>
<trkpt lat="50.015496" lon="5.269811"><time>2026-05-06T18:29:46Z</time></trkpt>
</trkseg></trk>
<trk>
<name>xlblb40</name>
<cmt>q</cmt>
<desc>Libin Chemin n°40 Rue de Libin</desc>
<link href="https://chemins.be/libin/chemin/40"/><trkseg>
<trkpt lat="50.015496" lon="5.269811"><time>2026-05-06T18:29:46Z</time></trkpt>
<trkpt lat="50.014241" lon="5.271624"><time>2026-05-06T18:39:46Z</time></trkpt>
<trkpt lat="50.014084" lon="5.273008"><time>2026-05-06T18:49:46Z</time></trkpt>
</trkseg></trk>
<trk>
<name>xlblb40</name>
<cmt>v</cmt>
<desc>Libin Chemin n°40 Rue de Libin</desc>
<link href="https://chemins.be/libin/chemin/40"/><trkseg>
<trkpt lat="50.014084" lon="5.273008"><time>2026-05-06T18:49:46Z</time></trkpt>
<trkpt lat="50.013759" lon="5.274972"><time>2026-05-06T18:59:46Z</time></trkpt>
<trkpt lat="50.012649" lon="5.276892"><time>2026-05-06T19:09:46Z</time></trkpt>
<trkpt lat="50.011249" lon="5.278437"><time>2026-05-06T19:19:46Z</time></trkpt>
<trkpt lat="50.010526" lon="5.278312"><time>2026-05-06T19:29:46Z</time></trkpt>
<trkpt lat="50.009698" lon="5.278169"><time>2026-05-06T19:39:46Z</time></trkpt>
<trkpt lat="50.007884" lon="5.278995"><time>2026-05-06T19:49:46Z</time></trkpt>
<trkpt lat="50.007221" lon="5.278974"><time>2026-05-06T19:59:46Z</time></trkpt>
<trkpt lat="50.006726" lon="5.279714"><time>2026-05-06T20:09:46Z</time></trkpt>
<trkpt lat="50.006505" lon="5.280186"><time>2026-05-06T20:19:46Z</time></trkpt>
<trkpt lat="50.006066" lon="5.282676"><time>2026-05-06T20:29:46Z</time></trkpt>
<trkpt lat="50.006025" lon="5.283913"><time>2026-05-06T20:39:46Z</time></trkpt>
<trkpt lat="50.006149" lon="5.284934"><time>2026-05-06T20:49:46Z</time></trkpt>
<trkpt lat="50.006611" lon="5.286965"><time>2026-05-06T20:59:46Z</time></trkpt>
<trkpt lat="50.007192" lon="5.288405"><time>2026-05-06T21:09:46Z</time></trkpt>
</trkseg>
</trk>
<trk>
<name>xlblb41</name>
<cmt>r</cmt>
<desc>Libin Chemin n°41 </desc>
<link href="https://chemins.be/libin/chemin/41"/><trkseg>
<trkpt lat="50.019639" lon="5.267622"><time>2026-05-06T18:09:46Z</time></trkpt>
<trkpt lat="50.020150" lon="5.268545"><time>2026-05-06T18:19:46Z</time></trkpt>
<trkpt lat="50.020122" lon="5.270519"><time>2026-05-06T18:29:46Z</time></trkpt>
<trkpt lat="50.019728" lon="5.273253"><time>2026-05-06T18:39:46Z</time></trkpt>
</trkseg></trk>
<trk>
<name>xlblb41</name>
<cmt>v</cmt>
<desc>Libin Chemin n°41 </desc>
<link href="https://chemins.be/libin/chemin/41"/><trkseg>
<trkpt lat="50.019728" lon="5.273253"><time>2026-05-06T18:39:46Z</time></trkpt>
<trkpt lat="50.019584" lon="5.274253"><time>2026-05-06T18:49:46Z</time></trkpt>
<trkpt lat="50.019129" lon="5.276248"><time>2026-05-06T18:59:46Z</time></trkpt>
<trkpt lat="50.018661" lon="5.276742"><time>2026-05-06T19:09:46Z</time></trkpt>
<trkpt lat="50.017119" lon="5.277056"><time>2026-05-06T19:19:46Z</time></trkpt>
<trkpt lat="50.016234" lon="5.277235"><time>2026-05-06T19:29:46Z</time></trkpt>
<trkpt lat="50.015655" lon="5.277171"><time>2026-05-06T19:39:46Z</time></trkpt>
<trkpt lat="50.014520" lon="5.274950"><time>2026-05-06T19:49:46Z</time></trkpt>
</trkseg>
</trk>
<trk>
<name>xlblb43</name>
<cmt>q</cmt>
<desc>Libin Sentier n°43 </desc>
<link href="https://chemins.be/libin/sentier/43"/><trkseg>
<trkpt lat="49.976004" lon="5.259393"><time>2026-05-06T18:09:46Z</time></trkpt>
<trkpt lat="49.975776" lon="5.260735"><time>2026-05-06T18:19:46Z</time></trkpt>
<trkpt lat="49.974389" lon="5.261722"><time>2026-05-06T18:29:46Z</time></trkpt>
</trkseg>
</trk>
<trk>
<name>xlblb44</name>
<cmt>v</cmt>
<desc>Libin Chemin n°44 </desc>
<link href="https://chemins.be/libin/chemin/44"/><trkseg>
<trkpt lat="50.021242" lon="5.265265"><time>2026-05-06T18:09:46Z</time></trkpt>
<trkpt lat="50.021542" lon="5.266432"><time>2026-05-06T18:19:46Z</time></trkpt>
<trkpt lat="50.021514" lon="5.267740"><time>2026-05-06T18:29:46Z</time></trkpt>
<trkpt lat="50.022521" lon="5.270230"><time>2026-05-06T18:39:46Z</time></trkpt>
<trkpt lat="50.022267" lon="5.271789"><time>2026-05-06T18:49:46Z</time></trkpt>
<trkpt lat="50.022115" lon="5.273149"><time>2026-05-06T18:59:46Z</time></trkpt>
<trkpt lat="50.022141" lon="5.274160"><time>2026-05-06T19:09:46Z</time></trkpt>
<trkpt lat="50.022344" lon="5.275107"><time>2026-05-06T19:19:46Z</time></trkpt>
<trkpt lat="50.022508" lon="5.275229"><time>2026-05-06T19:29:46Z</time></trkpt>
<trkpt lat="50.022567" lon="5.275080"><time>2026-05-06T19:39:46Z</time></trkpt>
<trkpt lat="50.022692" lon="5.275069"><time>2026-05-06T19:49:46Z</time></trkpt>
<trkpt lat="50.022766" lon="5.275172"><time>2026-05-06T19:59:46Z</time></trkpt>
<trkpt lat="50.022898" lon="5.275229"><time>2026-05-06T20:09:46Z</time></trkpt>
<trkpt lat="50.023008" lon="5.275160"><time>2026-05-06T20:19:46Z</time></trkpt>
<trkpt lat="50.023398" lon="5.274748"><time>2026-05-06T20:29:46Z</time></trkpt>
<trkpt lat="50.023734" lon="5.274505"><time>2026-05-06T20:39:46Z</time></trkpt>
<trkpt lat="50.023940" lon="5.274451"><time>2026-05-06T20:49:46Z</time></trkpt>
<trkpt lat="50.024009" lon="5.274591"><time>2026-05-06T20:59:46Z</time></trkpt>
</trkseg>
</trk>
<trk>
<name>xlblb45</name>
<cmt>v</cmt>
<desc>Libin Chemin n°45 </desc>
<link href="https://chemins.be/libin/chemin/45"/><trkseg>
<trkpt lat="50.029228" lon="5.257986"><time>2026-05-06T18:09:46Z</time></trkpt>
<trkpt lat="50.030025" lon="5.257720"><time>2026-05-06T18:19:46Z</time></trkpt>
<trkpt lat="50.030220" lon="5.260879"><time>2026-05-06T18:29:46Z</time></trkpt>
<trkpt lat="50.029951" lon="5.264742"><time>2026-05-06T18:39:46Z</time></trkpt>
<trkpt lat="50.030149" lon="5.265538"><time>2026-05-06T18:49:46Z</time></trkpt>
<trkpt lat="50.030509" lon="5.266566"><time>2026-05-06T18:59:46Z</time></trkpt>
<trkpt lat="50.030709" lon="5.269012"><time>2026-05-06T19:09:46Z</time></trkpt>
<trkpt lat="50.031053" lon="5.270053"><time>2026-05-06T19:19:46Z</time></trkpt>
<trkpt lat="50.030764" lon="5.271898"><time>2026-05-06T19:29:46Z</time></trkpt>
<trkpt lat="50.030516" lon="5.271930"><time>2026-05-06T19:39:46Z</time></trkpt>
<trkpt lat="50.030688" lon="5.273185"><time>2026-05-06T19:49:46Z</time></trkpt>
</trkseg>
</trk>
<trk>
<name>xlblb46</name>
<cmt>q</cmt>
<desc>Libin Chemin n°46 </desc>
<link href="https://chemins.be/libin/chemin/46"/><trkseg>
<trkpt lat="50.030095" lon="5.259753"><time>2026-05-06T18:09:46Z</time></trkpt>
<trkpt lat="50.030585" lon="5.259978"><time>2026-05-06T18:19:46Z</time></trkpt>
<trkpt lat="50.031991" lon="5.263401"><time>2026-05-06T18:29:46Z</time></trkpt>
</trkseg>
</trk>
<trk>
<name>xlblb47</name>
<cmt>v</cmt>
<desc>Libin Chemin n°47 </desc>
<link href="https://chemins.be/libin/chemin/47"/><trkseg>
<trkpt lat="50.030089" lon="5.257763"><time>2026-05-06T18:09:46Z</time></trkpt>
<trkpt lat="50.033742" lon="5.256540"><time>2026-05-06T18:19:46Z</time></trkpt>
<trkpt lat="50.034169" lon="5.257033"><time>2026-05-06T18:29:46Z</time></trkpt>
</trkseg></trk>
<trk>
<name>xlblb47</name>
<cmt>q</cmt>
<desc>Libin Chemin n°47 </desc>
<link href="https://chemins.be/libin/chemin/47"/><trkseg>
<trkpt lat="50.034169" lon="5.257033"><time>2026-05-06T18:29:46Z</time></trkpt>
<trkpt lat="50.036815" lon="5.262204"><time>2026-05-06T18:39:46Z</time></trkpt>
</trkseg>
</trk>
<trk>
<name>xlblb48</name>
<cmt>v</cmt>
<desc>Libin Chemin n°48 </desc>
<link href="https://chemins.be/libin/chemin/48"/><trkseg>
<trkpt lat="49.998837" lon="5.254995"><time>2026-05-06T18:09:46Z</time></trkpt>
<trkpt lat="49.996133" lon="5.256464"><time>2026-05-06T18:19:46Z</time></trkpt>
</trkseg>
</trk>
<trk>
<name>xlblb49</name>
<cmt>v</cmt>
<desc>Libin Sentier n°49 </desc>
<link href="https://chemins.be/libin/sentier/49"/><trkseg>
<trkpt lat="49.991829" lon="5.251422"><time>2026-05-06T18:09:46Z</time></trkpt>
<trkpt lat="49.992305" lon="5.251127"><time>2026-05-06T18:19:46Z</time></trkpt>
<trkpt lat="49.992788" lon="5.250403"><time>2026-05-06T18:29:46Z</time></trkpt>
<trkpt lat="49.992754" lon="5.249963"><time>2026-05-06T18:39:46Z</time></trkpt>
</trkseg></trk>
<trk>
<name>xlblb49</name>
<cmt>q</cmt>
<desc>Libin Sentier n°49 </desc>
<link href="https://chemins.be/libin/sentier/49"/><trkseg>
<trkpt lat="49.992754" lon="5.249963"><time>2026-05-06T18:39:46Z</time></trkpt>
<trkpt lat="49.992605" lon="5.248005"><time>2026-05-06T18:49:46Z</time></trkpt>
</trkseg>
</trk>
<trk>
<name>xlblb5</name>
<cmt>r</cmt>
<desc>Libin Chemin n°5 </desc>
<link href="https://chemins.be/libin/chemin/5"/><trkseg>
<trkpt lat="50.016303" lon="5.267612"><time>2026-05-06T18:09:46Z</time></trkpt>
<trkpt lat="50.014248" lon="5.266625"><time>2026-05-06T18:19:46Z</time></trkpt>
<trkpt lat="50.013104" lon="5.265659"><time>2026-05-06T18:29:46Z</time></trkpt>
<trkpt lat="50.008845" lon="5.260477"><time>2026-05-06T18:39:46Z</time></trkpt>
<trkpt lat="50.006885" lon="5.259297"><time>2026-05-06T18:49:46Z</time></trkpt>
<trkpt lat="49.998858" lon="5.254920"><time>2026-05-06T18:59:46Z</time></trkpt>
<trkpt lat="49.996514" lon="5.253804"><time>2026-05-06T19:09:46Z</time></trkpt>
<trkpt lat="49.992017" lon="5.251572"><time>2026-05-06T19:19:46Z</time></trkpt>
</trkseg>
</trk>
<trk>
<name>xlblb52</name>
<cmt>v</cmt>
<desc>Libin Chemin n°52 </desc>
<link href="https://chemins.be/libin/chemin/52"/><trkseg>
<trkpt lat="49.992605" lon="5.247769"><time>2026-05-06T18:09:46Z</time></trkpt>
<trkpt lat="49.992319" lon="5.245736"><time>2026-05-06T18:19:46Z</time></trkpt>
<trkpt lat="49.987463" lon="5.241573"><time>2026-05-06T18:29:46Z</time></trkpt>
<trkpt lat="49.985863" lon="5.240242"><time>2026-05-06T18:39:46Z</time></trkpt>
</trkseg>
</trk>
<trk>
<name>xlblb54</name>
<cmt>v</cmt>
<desc>Libin Chemin n°54 </desc>
<link href="https://chemins.be/libin/chemin/54"/><trkseg>
<trkpt lat="49.973689" lon="5.252575"><time>2026-05-06T18:09:46Z</time></trkpt>
<trkpt lat="49.973515" lon="5.249015"><time>2026-05-06T18:19:46Z</time></trkpt>
<trkpt lat="49.971302" lon="5.246225"><time>2026-05-06T18:29:46Z</time></trkpt>
</trkseg>
</trk>
<trk>
<name>xlblb56</name>
<cmt>r</cmt>
<desc>Libin Chemin n°56 </desc>
<link href="https://chemins.be/libin/chemin/56"/><trkseg>
<trkpt lat="49.967681" lon="5.254422"><time>2026-05-06T18:09:46Z</time></trkpt>
<trkpt lat="49.967626" lon="5.254265"><time>2026-05-06T18:19:46Z</time></trkpt>
<trkpt lat="49.965739" lon="5.251790"><time>2026-05-06T18:29:46Z</time></trkpt>
<trkpt lat="49.964755" lon="5.251604"><time>2026-05-06T18:39:46Z</time></trkpt>
<trkpt lat="49.963531" lon="5.250849"><time>2026-05-06T18:49:46Z</time></trkpt>
</trkseg></trk>
<trk>
<name>xlblb56</name>
<cmt>q</cmt>
<desc>Libin Chemin n°56 </desc>
<link href="https://chemins.be/libin/chemin/56"/><trkseg>
<trkpt lat="49.963531" lon="5.250849"><time>2026-05-06T18:49:46Z</time></trkpt>
<trkpt lat="49.962813" lon="5.250374"><time>2026-05-06T18:59:46Z</time></trkpt>
</trkseg>
</trk>
<trk>
<name>xlblb57</name>
<cmt>v</cmt>
<desc>Libin Chemin n°57 </desc>
<link href="https://chemins.be/libin/chemin/57"/><trkseg>
<trkpt lat="49.969722" lon="5.260957"><time>2026-05-06T18:09:46Z</time></trkpt>
<trkpt lat="49.968664" lon="5.261495"><time>2026-05-06T18:19:46Z</time></trkpt>
<trkpt lat="49.968018" lon="5.261504"><time>2026-05-06T18:29:46Z</time></trkpt>
<trkpt lat="49.967875" lon="5.261658"><time>2026-05-06T18:39:46Z</time></trkpt>
</trkseg>
</trk>
<trk>
<name>xlblb62</name>
<cmt>v</cmt>
<desc>Libin Sentier n°62 </desc>
<link href="https://chemins.be/libin/sentier/62"/><trkseg>
<trkpt lat="49.982706" lon="5.261942"><time>2026-05-06T18:09:46Z</time></trkpt>
<trkpt lat="49.981347" lon="5.262097"><time>2026-05-06T18:19:46Z</time></trkpt>
<trkpt lat="49.981237" lon="5.262312"><time>2026-05-06T18:29:46Z</time></trkpt>
</trkseg></trk>
<trk>
<name>xlblb62</name>
<cmt>d</cmt>
<desc>Libin Sentier n°62 </desc>
<link href="https://chemins.be/libin/sentier/62"/><trkseg>
<trkpt lat="49.981237" lon="5.262312"><time>2026-05-06T18:29:46Z</time></trkpt>
<trkpt lat="49.981013" lon="5.262242"><time>2026-05-06T18:39:46Z</time></trkpt>
<trkpt lat="49.980354" lon="5.262167"><time>2026-05-06T18:49:46Z</time></trkpt>
<trkpt lat="49.979974" lon="5.261888"><time>2026-05-06T18:59:46Z</time></trkpt>
<trkpt lat="49.979399" lon="5.260312"><time>2026-05-06T19:09:46Z</time></trkpt>
</trkseg></trk>
<trk>
<name>xlblb62</name>
<cmt>v</cmt>
<desc>Libin Sentier n°62 </desc>
<link href="https://chemins.be/libin/sentier/62"/><trkseg>
<trkpt lat="49.979399" lon="5.260312"><time>2026-05-06T19:09:46Z</time></trkpt>
<trkpt lat="49.979174" lon="5.259694"><time>2026-05-06T19:19:46Z</time></trkpt>
<trkpt lat="49.978839" lon="5.259265"><time>2026-05-06T19:29:46Z</time></trkpt>
<trkpt lat="49.978439" lon="5.259104"><time>2026-05-06T19:39:46Z</time></trkpt>
</trkseg>
</trk>
<trk>
<name>xlblb63</name>
<cmt>q</cmt>
<desc>Libin Sentier n°63 </desc>
<link href="https://chemins.be/libin/sentier/63"/><trkseg>
<trkpt lat="49.982993" lon="5.254641"><time>2026-05-06T18:09:46Z</time></trkpt>
<trkpt lat="49.982938" lon="5.254083"><time>2026-05-06T18:19:46Z</time></trkpt>
<trkpt lat="49.983190" lon="5.253259"><time>2026-05-06T18:29:46Z</time></trkpt>
<trkpt lat="49.984028" lon="5.250521"><time>2026-05-06T18:39:46Z</time></trkpt>
</trkseg>
</trk>
<trk>
<name>xlblb64</name>
<cmt>q</cmt>
<desc>Libin Sentier n°64 </desc>
<link href="https://chemins.be/libin/sentier/64"/><trkseg>
<trkpt lat="50.014193" lon="5.266614"><time>2026-05-06T18:09:46Z</time></trkpt>
<trkpt lat="50.006347" lon="5.269146"><time>2026-05-06T18:19:46Z</time></trkpt>
<trkpt lat="50.004844" lon="5.268824"><time>2026-05-06T18:29:46Z</time></trkpt>
</trkseg>
</trk>
<trk>
<name>xlblb65</name>
<cmt>q</cmt>
<desc>Libin Sentier n°65 </desc>
<link href="https://chemins.be/libin/sentier/65"/><trkseg>
<trkpt lat="49.989243" lon="5.251658"><time>2026-05-06T18:09:46Z</time></trkpt>
<trkpt lat="49.988401" lon="5.251272"><time>2026-05-06T18:19:46Z</time></trkpt>
<trkpt lat="49.985132" lon="5.252366"><time>2026-05-06T18:29:46Z</time></trkpt>
<trkpt lat="49.984252" lon="5.253058"><time>2026-05-06T18:39:46Z</time></trkpt>
<trkpt lat="49.984241" lon="5.253235"><time>2026-05-06T18:49:46Z</time></trkpt>
<trkpt lat="49.983853" lon="5.253683"><time>2026-05-06T18:59:46Z</time></trkpt>
<trkpt lat="49.983065" lon="5.254592"><time>2026-05-06T19:09:46Z</time></trkpt>
<trkpt lat="49.982751" lon="5.254898"><time>2026-05-06T19:19:46Z</time></trkpt>
<trkpt lat="49.982248" lon="5.255070"><time>2026-05-06T19:29:46Z</time></trkpt>
<trkpt lat="49.981440" lon="5.255359"><time>2026-05-06T19:39:46Z</time></trkpt>
<trkpt lat="49.980782" lon="5.255365"><time>2026-05-06T19:49:46Z</time></trkpt>
<trkpt lat="49.980437" lon="5.255622"><time>2026-05-06T19:59:46Z</time></trkpt>
<trkpt lat="49.979947" lon="5.255284"><time>2026-05-06T20:09:46Z</time></trkpt>
<trkpt lat="49.977273" lon="5.254780"><time>2026-05-06T20:19:46Z</time></trkpt>
<trkpt lat="49.975859" lon="5.254222"><time>2026-05-06T20:29:46Z</time></trkpt>
<trkpt lat="49.974527" lon="5.255381"><time>2026-05-06T20:39:46Z</time></trkpt>
</trkseg>
</trk>
<trk>
<name>xlblb67</name>
<cmt>v</cmt>
<desc>Libin Sentier n°67 </desc>
<link href="https://chemins.be/libin/sentier/67"/><trkseg>
<trkpt lat="49.976080" lon="5.258122"><time>2026-05-06T18:09:46Z</time></trkpt>
<trkpt lat="49.975976" lon="5.257224"><time>2026-05-06T18:19:46Z</time></trkpt>
</trkseg></trk>
<trk>
<name>xlblb67</name>
<cmt>q</cmt>
<desc>Libin Sentier n°67 </desc>
<link href="https://chemins.be/libin/sentier/67"/><trkseg>
<trkpt lat="49.975976" lon="5.257224"><time>2026-05-06T18:19:46Z</time></trkpt>
<trkpt lat="49.975893" lon="5.256507"><time>2026-05-06T18:29:46Z</time></trkpt>
<trkpt lat="49.975762" lon="5.256470"><time>2026-05-06T18:39:46Z</time></trkpt>
<trkpt lat="49.975524" lon="5.257972"><time>2026-05-06T18:49:46Z</time></trkpt>
</trkseg>
</trk>
<trk>
<name>xlblb68</name>
<cmt>v</cmt>
<desc>Libin Sentier n°68 </desc>
<link href="https://chemins.be/libin/sentier/68"/><trkseg>
<trkpt lat="49.978791" lon="5.259275"><time>2026-05-06T18:09:46Z</time></trkpt>
<trkpt lat="49.978864" lon="5.258981"><time>2026-05-06T18:19:46Z</time></trkpt>
</trkseg></trk>
<trk>
<name>xlblb68</name>
<cmt>q</cmt>
<desc>Libin Sentier n°68 </desc>
<link href="https://chemins.be/libin/sentier/68"/><trkseg>
<trkpt lat="49.978864" lon="5.258981"><time>2026-05-06T18:19:46Z</time></trkpt>
<trkpt lat="49.978465" lon="5.258742"><time>2026-05-06T18:29:46Z</time></trkpt>
</trkseg>
</trk>
<trk>
<name>xlblb69</name>
<cmt>q</cmt>
<desc>Libin Sentier n°69 </desc>
<link href="https://chemins.be/libin/sentier/69"/><trkseg>
<trkpt lat="49.974462" lon="5.260692"><time>2026-05-06T18:09:46Z</time></trkpt>
<trkpt lat="49.974879" lon="5.260981"><time>2026-05-06T18:19:46Z</time></trkpt>
<trkpt lat="49.974976" lon="5.261314"><time>2026-05-06T18:29:46Z</time></trkpt>
<trkpt lat="49.975245" lon="5.262338"><time>2026-05-06T18:39:46Z</time></trkpt>
<trkpt lat="49.975541" lon="5.265965"><time>2026-05-06T18:49:46Z</time></trkpt>
<trkpt lat="49.976045" lon="5.267655"><time>2026-05-06T18:59:46Z</time></trkpt>
</trkseg>
</trk>
<trk>
<name>xlblb7</name>
<cmt>v</cmt>
<desc>Libin Chemin n°7 </desc>
<link href="https://chemins.be/libin/chemin/7"/><trkseg>
<trkpt lat="50.029310" lon="5.257953"><time>2026-05-06T18:09:46Z</time></trkpt>
<trkpt lat="50.030122" lon="5.257014"><time>2026-05-06T18:19:46Z</time></trkpt>
</trkseg></trk>
<trk>
<name>xlblb7</name>
<cmt>d</cmt>
<desc>Libin Chemin n°7 </desc>
<link href="https://chemins.be/libin/chemin/7"/><trkseg>
<trkpt lat="50.030122" lon="5.257014"><time>2026-05-06T18:19:46Z</time></trkpt>
<trkpt lat="50.031050" lon="5.256753"><time>2026-05-06T18:29:46Z</time></trkpt>
<trkpt lat="50.032620" lon="5.255853"><time>2026-05-06T18:39:46Z</time></trkpt>
<trkpt lat="50.035181" lon="5.254053"><time>2026-05-06T18:49:46Z</time></trkpt>
<trkpt lat="50.037380" lon="5.254053"><time>2026-05-06T18:59:46Z</time></trkpt>
</trkseg>
</trk>
<trk>
<name>xlblb70</name>
<cmt>r</cmt>
<desc>Libin Chemin n°70 </desc>
<link href="https://chemins.be/libin/chemin/70"/><trkseg>
<trkpt lat="50.019242" lon="5.264199"><time>2026-05-06T18:09:46Z</time></trkpt>
<trkpt lat="50.020083" lon="5.263981"><time>2026-05-06T18:19:46Z</time></trkpt>
<trkpt lat="50.020571" lon="5.263230"><time>2026-05-06T18:29:46Z</time></trkpt>
</trkseg></trk>
<trk>
<name>xlblb70</name>
<cmt>v</cmt>
<desc>Libin Chemin n°70 </desc>
<link href="https://chemins.be/libin/chemin/70"/><trkseg>
<trkpt lat="50.020571" lon="5.263230"><time>2026-05-06T18:29:46Z</time></trkpt>
<trkpt lat="50.020814" lon="5.262772"><time>2026-05-06T18:39:46Z</time></trkpt>
<trkpt lat="50.021252" lon="5.260992"><time>2026-05-06T18:49:46Z</time></trkpt>
<trkpt lat="50.021928" lon="5.259469"><time>2026-05-06T18:59:46Z</time></trkpt>
</trkseg>
</trk>
<trk>
<name>xlblb71</name>
<cmt>q</cmt>
<desc>Libin Sentier n°71 </desc>
<link href="https://chemins.be/libin/sentier/71"/><trkseg>
<trkpt lat="50.020073" lon="5.263942"><time>2026-05-06T18:09:46Z</time></trkpt>
<trkpt lat="50.020873" lon="5.264307"><time>2026-05-06T18:19:46Z</time></trkpt>
<trkpt lat="50.021038" lon="5.264618"><time>2026-05-06T18:29:46Z</time></trkpt>
<trkpt lat="50.021410" lon="5.264708"><time>2026-05-06T18:39:46Z</time></trkpt>
<trkpt lat="50.021381" lon="5.264958"><time>2026-05-06T18:49:46Z</time></trkpt>
</trkseg>
</trk>
<trk>
<name>xlblb9</name>
<cmt>v</cmt>
<desc>Libin Chemin n°9 </desc>
<link href="https://chemins.be/libin/chemin/9"/><trkseg>
<trkpt lat="50.019598" lon="5.256937"><time>2026-05-06T18:09:46Z</time></trkpt>
<trkpt lat="50.019377" lon="5.254662"><time>2026-05-06T18:19:46Z</time></trkpt>
<trkpt lat="50.019791" lon="5.249448"><time>2026-05-06T18:29:46Z</time></trkpt>
<trkpt lat="50.019750" lon="5.247002"><time>2026-05-06T18:39:46Z</time></trkpt>
<trkpt lat="50.020742" lon="5.241744"><time>2026-05-06T18:49:46Z</time></trkpt>
<trkpt lat="50.023569" lon="5.236573"><time>2026-05-06T18:59:46Z</time></trkpt>
<trkpt lat="50.024216" lon="5.233376"><time>2026-05-06T19:09:46Z</time></trkpt>
<trkpt lat="50.025113" lon="5.231509"><time>2026-05-06T19:19:46Z</time></trkpt>
<trkpt lat="50.025733" lon="5.231456"><time>2026-05-06T19:29:46Z</time></trkpt>
<trkpt lat="50.026636" lon="5.230522"><time>2026-05-06T19:39:46Z</time></trkpt>
<trkpt lat="50.027028" lon="5.229106"><time>2026-05-06T19:49:46Z</time></trkpt>
</trkseg>
</trk>
<trk>
<name>xlblbi1</name>
<cmt>v</cmt>
<desc>Libin Chemin n°i1 </desc>
<link href="https://chemins.be/libin/chemin/i1"/><trkseg>
<trkpt lat="50.023624" lon="5.263070"><time>2026-05-06T18:09:46Z</time></trkpt>
<trkpt lat="50.023637" lon="5.264064"><time>2026-05-06T18:19:46Z</time></trkpt>
<trkpt lat="50.023728" lon="5.264757"><time>2026-05-06T18:29:46Z</time></trkpt>
<trkpt lat="50.023837" lon="5.265512"><time>2026-05-06T18:39:46Z</time></trkpt>
<trkpt lat="50.024059" lon="5.266496"><time>2026-05-06T18:49:46Z</time></trkpt>
<trkpt lat="50.024141" lon="5.266796"><time>2026-05-06T18:59:46Z</time></trkpt>
<trkpt lat="50.024238" lon="5.266903"><time>2026-05-06T19:09:46Z</time></trkpt>
<trkpt lat="50.024843" lon="5.267035"><time>2026-05-06T19:19:46Z</time></trkpt>
<trkpt lat="50.025188" lon="5.267100"><time>2026-05-06T19:29:46Z</time></trkpt>
<trkpt lat="50.025410" lon="5.267204"><time>2026-05-06T19:39:46Z</time></trkpt>
<trkpt lat="50.025740" lon="5.267472"><time>2026-05-06T19:49:46Z</time></trkpt>
<trkpt lat="50.026029" lon="5.267615"><time>2026-05-06T19:59:46Z</time></trkpt>
<trkpt lat="50.026552" lon="5.267990"><time>2026-05-06T20:09:46Z</time></trkpt>
<trkpt lat="50.026656" lon="5.268038"><time>2026-05-06T20:19:46Z</time></trkpt>
<trkpt lat="50.026949" lon="5.268081"><time>2026-05-06T20:29:46Z</time></trkpt>
<trkpt lat="50.027294" lon="5.268157"><time>2026-05-06T20:39:46Z</time></trkpt>
<trkpt lat="50.027402" lon="5.268266"><time>2026-05-06T20:49:46Z</time></trkpt>
<trkpt lat="50.027614" lon="5.268934"><time>2026-05-06T20:59:46Z</time></trkpt>
<trkpt lat="50.027700" lon="5.269224"><time>2026-05-06T21:09:46Z</time></trkpt>
<trkpt lat="50.028055" lon="5.270056"><time>2026-05-06T21:19:46Z</time></trkpt>
</trkseg>
</trk>
<trk>
<name>xlblbi10</name>
<cmt>v</cmt>
<desc>Libin Chemin n°i10 </desc>
<link href="https://chemins.be/libin/chemin/i10"/><trkseg>
<trkpt lat="50.018233" lon="5.257816"><time>2026-05-06T18:09:46Z</time></trkpt>
<trkpt lat="50.012621" lon="5.254855"><time>2026-05-06T18:19:46Z</time></trkpt>
</trkseg>
</trk>
<trk>
<name>xlblbi11</name>
<cmt>v</cmt>
<desc>Libin Chemin n°i11 </desc>
<link href="https://chemins.be/libin/chemin/i11"/><trkseg>
<trkpt lat="50.013814" lon="5.266539"><time>2026-05-06T18:09:46Z</time></trkpt>
<trkpt lat="50.013696" lon="5.267783"><time>2026-05-06T18:19:46Z</time></trkpt>
<trkpt lat="50.014096" lon="5.270509"><time>2026-05-06T18:29:46Z</time></trkpt>
<trkpt lat="50.014014" lon="5.272472"><time>2026-05-06T18:39:46Z</time></trkpt>
<trkpt lat="50.014621" lon="5.275047"><time>2026-05-06T18:49:46Z</time></trkpt>
<trkpt lat="50.014745" lon="5.277128"><time>2026-05-06T18:59:46Z</time></trkpt>
<trkpt lat="50.014207" lon="5.278673"><time>2026-05-06T19:09:46Z</time></trkpt>
<trkpt lat="50.015021" lon="5.280497"><time>2026-05-06T19:19:46Z</time></trkpt>
<trkpt lat="50.016537" lon="5.281291"><time>2026-05-06T19:29:46Z</time></trkpt>
<trkpt lat="50.018081" lon="5.279639"><time>2026-05-06T19:39:46Z</time></trkpt>
<trkpt lat="50.019267" lon="5.279510"><time>2026-05-06T19:49:46Z</time></trkpt>
<trkpt lat="50.021432" lon="5.281227"><time>2026-05-06T19:59:46Z</time></trkpt>
<trkpt lat="50.022011" lon="5.281270"><time>2026-05-06T20:09:46Z</time></trkpt>
<trkpt lat="50.022074" lon="5.281565"><time>2026-05-06T20:19:46Z</time></trkpt>
<trkpt lat="50.022232" lon="5.281618"><time>2026-05-06T20:29:46Z</time></trkpt>
<trkpt lat="50.022336" lon="5.282578"><time>2026-05-06T20:39:46Z</time></trkpt>
</trkseg>
</trk>
<trk>
<name>xlblbi12</name>
<cmt>v</cmt>
<desc>Libin Chemin n°i12 </desc>
<link href="https://chemins.be/libin/chemin/i12"/><trkseg>
<trkpt lat="50.010554" lon="5.262837"><time>2026-05-06T18:09:46Z</time></trkpt>
<trkpt lat="50.011298" lon="5.260522"><time>2026-05-06T18:19:46Z</time></trkpt>
<trkpt lat="50.012621" lon="5.254683"><time>2026-05-06T18:29:46Z</time></trkpt>
<trkpt lat="50.014195" lon="5.246800"><time>2026-05-06T18:39:46Z</time></trkpt>
<trkpt lat="50.014745" lon="5.243740"><time>2026-05-06T18:49:46Z</time></trkpt>
<trkpt lat="50.016014" lon="5.241122"><time>2026-05-06T18:59:46Z</time></trkpt>
<trkpt lat="50.016538" lon="5.240822"><time>2026-05-06T19:09:46Z</time></trkpt>
</trkseg>
</trk>
<trk>
<name>xlblbi13</name>
<cmt>v</cmt>
<desc>Libin Chemin n°i13 </desc>
<link href="https://chemins.be/libin/chemin/i13"/><trkseg>
<trkpt lat="50.008815" lon="5.260735"><time>2026-05-06T18:09:46Z</time></trkpt>
<trkpt lat="50.008333" lon="5.267708"><time>2026-05-06T18:19:46Z</time></trkpt>
<trkpt lat="50.008002" lon="5.274124"><time>2026-05-06T18:29:46Z</time></trkpt>
<trkpt lat="50.007960" lon="5.276420"><time>2026-05-06T18:39:46Z</time></trkpt>
</trkseg>
</trk>
<trk>
<name>xlblbi14</name>
<cmt>v</cmt>
<desc>Libin Chemin n°i14 </desc>
<link href="https://chemins.be/libin/chemin/i14"/><trkseg>
<trkpt lat="50.006003" lon="5.265670"><time>2026-05-06T18:09:46Z</time></trkpt>
<trkpt lat="50.006775" lon="5.263653"><time>2026-05-06T18:19:46Z</time></trkpt>
<trkpt lat="50.007327" lon="5.259490"><time>2026-05-06T18:29:46Z</time></trkpt>
<trkpt lat="50.010719" lon="5.245800"><time>2026-05-06T18:39:46Z</time></trkpt>
</trkseg>
</trk>
<trk>
<name>xlblbi15</name>
<cmt>v</cmt>
<desc>Libin Chemin n°i15 </desc>
<link href="https://chemins.be/libin/chemin/i15"/><trkseg>
<trkpt lat="50.005947" lon="5.258932"><time>2026-05-06T18:09:46Z</time></trkpt>
<trkpt lat="50.006015" lon="5.259726"><time>2026-05-06T18:19:46Z</time></trkpt>
<trkpt lat="50.005416" lon="5.261947"><time>2026-05-06T18:29:46Z</time></trkpt>
<trkpt lat="50.005098" lon="5.262827"><time>2026-05-06T18:39:46Z</time></trkpt>
<trkpt lat="50.004960" lon="5.263524"><time>2026-05-06T18:49:46Z</time></trkpt>
<trkpt lat="50.004981" lon="5.263953"><time>2026-05-06T18:59:46Z</time></trkpt>
<trkpt lat="50.004995" lon="5.265863"><time>2026-05-06T19:09:46Z</time></trkpt>
<trkpt lat="50.003912" lon="5.268577"><time>2026-05-06T19:19:46Z</time></trkpt>
<trkpt lat="50.002492" lon="5.271807"><time>2026-05-06T19:29:46Z</time></trkpt>
<trkpt lat="50.001630" lon="5.271517"><time>2026-05-06T19:39:46Z</time></trkpt>
<trkpt lat="50.000582" lon="5.269940"><time>2026-05-06T19:49:46Z</time></trkpt>
</trkseg>
</trk>
<trk>
<name>xlblbi16</name>
<cmt>v</cmt>
<desc>Libin Chemin n°i16 </desc>
<link href="https://chemins.be/libin/chemin/i16"/><trkseg>
<trkpt lat="49.998809" lon="5.254936"><time>2026-05-06T18:09:46Z</time></trkpt>
<trkpt lat="49.998885" lon="5.255241"><time>2026-05-06T18:19:46Z</time></trkpt>
<trkpt lat="49.999826" lon="5.256352"><time>2026-05-06T18:29:46Z</time></trkpt>
<trkpt lat="50.000872" lon="5.257473"><time>2026-05-06T18:39:46Z</time></trkpt>
<trkpt lat="50.002306" lon="5.260477"><time>2026-05-06T18:49:46Z</time></trkpt>
<trkpt lat="50.004926" lon="5.262730"><time>2026-05-06T18:59:46Z</time></trkpt>
<trkpt lat="50.005092" lon="5.262945"><time>2026-05-06T19:09:46Z</time></trkpt>
</trkseg>
</trk>
<trk>
<name>xlblbi17</name>
<cmt>v</cmt>
<desc>Libin Chemin n°i17 </desc>
<link href="https://chemins.be/libin/chemin/i17"/><trkseg>
<trkpt lat="49.995961" lon="5.269167"><time>2026-05-06T18:09:46Z</time></trkpt>
<trkpt lat="49.995975" lon="5.271034"><time>2026-05-06T18:19:46Z</time></trkpt>
<trkpt lat="49.996858" lon="5.276806"><time>2026-05-06T18:29:46Z</time></trkpt>
<trkpt lat="49.994830" lon="5.278587"><time>2026-05-06T18:39:46Z</time></trkpt>
<trkpt lat="49.991257" lon="5.278909"><time>2026-05-06T18:49:46Z</time></trkpt>
</trkseg>
</trk>
<trk>
<name>xlblbi18</name>
<cmt>r</cmt>
<desc>Libin Chemin n°i18 Voie Gamby</desc>
<link href="https://chemins.be/libin/chemin/i18"/><trkseg>
<trkpt lat="49.989450" lon="5.267408"><time>2026-05-06T18:09:46Z</time></trkpt>
<trkpt lat="49.990016" lon="5.270476"><time>2026-05-06T18:19:46Z</time></trkpt>
<trkpt lat="49.992195" lon="5.270498"><time>2026-05-06T18:29:46Z</time></trkpt>
</trkseg></trk>
<trk>
<name>xlblbi18</name>
<cmt>v</cmt>
<desc>Libin Chemin n°i18 Voie Gamby</desc>
<link href="https://chemins.be/libin/chemin/i18"/><trkseg>
<trkpt lat="49.992195" lon="5.270498"><time>2026-05-06T18:29:46Z</time></trkpt>
<trkpt lat="49.994471" lon="5.271678"><time>2026-05-06T18:39:46Z</time></trkpt>
<trkpt lat="49.995975" lon="5.271034"><time>2026-05-06T18:49:46Z</time></trkpt>
</trkseg>
</trk>
<trk>
<name>xlblbi19</name>
<cmt>v</cmt>
<desc>Libin Chemin n°i19 </desc>
<link href="https://chemins.be/libin/chemin/i19"/><trkseg>
<trkpt lat="49.994389" lon="5.271678"><time>2026-05-06T18:09:46Z</time></trkpt>
<trkpt lat="49.994858" lon="5.278437"><time>2026-05-06T18:19:46Z</time></trkpt>
</trkseg>
</trk>
<trk>
<name>xlblbi2</name>
<cmt>v</cmt>
<desc>Libin Chemin n°i2 </desc>
<link href="https://chemins.be/libin/chemin/i2"/><trkseg>
<trkpt lat="50.036518" lon="5.264870"><time>2026-05-06T18:09:46Z</time></trkpt>
<trkpt lat="50.036119" lon="5.263959"><time>2026-05-06T18:19:46Z</time></trkpt>
<trkpt lat="50.035644" lon="5.262043"><time>2026-05-06T18:29:46Z</time></trkpt>
<trkpt lat="50.034883" lon="5.261685"><time>2026-05-06T18:39:46Z</time></trkpt>
<trkpt lat="50.033145" lon="5.263331"><time>2026-05-06T18:49:46Z</time></trkpt>
<trkpt lat="50.032890" lon="5.264221"><time>2026-05-06T18:59:46Z</time></trkpt>
<trkpt lat="50.031785" lon="5.265262"><time>2026-05-06T19:09:46Z</time></trkpt>
<trkpt lat="50.031481" lon="5.266619"><time>2026-05-06T19:19:46Z</time></trkpt>
<trkpt lat="50.032226" lon="5.268867"><time>2026-05-06T19:29:46Z</time></trkpt>
<trkpt lat="50.032928" lon="5.269505"><time>2026-05-06T19:39:46Z</time></trkpt>
<trkpt lat="50.032246" lon="5.269634"><time>2026-05-06T19:49:46Z</time></trkpt>
<trkpt lat="50.033425" lon="5.270455"><time>2026-05-06T19:59:46Z</time></trkpt>
<trkpt lat="50.035688" lon="5.271410"><time>2026-05-06T20:09:46Z</time></trkpt>
</trkseg>
</trk>
<trk>
<name>xlblbi20</name>
<cmt>v</cmt>
<desc>Libin Sentier n°i20 </desc>
<link href="https://chemins.be/libin/sentier/i20"/><trkseg>
<trkpt lat="49.978683" lon="5.257290"><time>2026-05-06T18:09:46Z</time></trkpt>
<trkpt lat="49.977966" lon="5.257229"><time>2026-05-06T18:19:46Z</time></trkpt>
</trkseg>
</trk>
<trk>
<name>xlblbi21</name>
<cmt>v</cmt>
<desc>Libin Chemin n°i21 </desc>
<link href="https://chemins.be/libin/chemin/i21"/><trkseg>
<trkpt lat="49.967880" lon="5.261650"><time>2026-05-06T18:09:46Z</time></trkpt>
<trkpt lat="49.966202" lon="5.263795"><time>2026-05-06T18:19:46Z</time></trkpt>
<trkpt lat="49.965414" lon="5.265786"><time>2026-05-06T18:29:46Z</time></trkpt>
<trkpt lat="49.964542" lon="5.264601"><time>2026-05-06T18:39:46Z</time></trkpt>
<trkpt lat="49.962400" lon="5.261351"><time>2026-05-06T18:49:46Z</time></trkpt>
</trkseg>
</trk>
<trk>
<name>xlblbi22</name>
<cmt>v</cmt>
<desc>Libin Chemin n°i22 </desc>
<link href="https://chemins.be/libin/chemin/i22"/><trkseg>
<trkpt lat="49.966517" lon="5.254449"><time>2026-05-06T18:09:46Z</time></trkpt>
<trkpt lat="49.965838" lon="5.255933"><time>2026-05-06T18:19:46Z</time></trkpt>
<trkpt lat="49.964662" lon="5.257152"><time>2026-05-06T18:29:46Z</time></trkpt>
<trkpt lat="49.963811" lon="5.258242"><time>2026-05-06T18:39:46Z</time></trkpt>
<trkpt lat="49.962355" lon="5.261528"><time>2026-05-06T18:49:46Z</time></trkpt>
<trkpt lat="49.961901" lon="5.263229"><time>2026-05-06T18:59:46Z</time></trkpt>
<trkpt lat="49.961426" lon="5.266722"><time>2026-05-06T19:09:46Z</time></trkpt>
<trkpt lat="49.960267" lon="5.270628"><time>2026-05-06T19:19:46Z</time></trkpt>
<trkpt lat="49.960835" lon="5.271177"><time>2026-05-06T19:29:46Z</time></trkpt>
<trkpt lat="49.960979" lon="5.271563"><time>2026-05-06T19:39:46Z</time></trkpt>
<trkpt lat="49.960068" lon="5.274009"><time>2026-05-06T19:49:46Z</time></trkpt>
<trkpt lat="49.960057" lon="5.275374"><time>2026-05-06T19:59:46Z</time></trkpt>
<trkpt lat="49.959372" lon="5.277185"><time>2026-05-06T20:09:46Z</time></trkpt>
<trkpt lat="49.958533" lon="5.277606"><time>2026-05-06T20:19:46Z</time></trkpt>
</trkseg>
</trk>
<trk>
<name>xlblbi23</name>
<cmt>v</cmt>
<desc>Libin Chemin n°i23 </desc>
<link href="https://chemins.be/libin/chemin/i23"/><trkseg>
<trkpt lat="49.965014" lon="5.257553"><time>2026-05-06T18:09:46Z</time></trkpt>
<trkpt lat="49.964689" lon="5.257081"><time>2026-05-06T18:19:46Z</time></trkpt>
</trkseg>
</trk>
<trk>
<name>xlblbi24</name>
<cmt>v</cmt>
<desc>Libin Chemin n°i24 </desc>
<link href="https://chemins.be/libin/chemin/i24"/><trkseg>
<trkpt lat="49.966285" lon="5.259264"><time>2026-05-06T18:09:46Z</time></trkpt>
<trkpt lat="49.965915" lon="5.261366"><time>2026-05-06T18:19:46Z</time></trkpt>
<trkpt lat="49.966064" lon="5.262422"><time>2026-05-06T18:29:46Z</time></trkpt>
<trkpt lat="49.966020" lon="5.262611"><time>2026-05-06T18:39:46Z</time></trkpt>
<trkpt lat="49.965335" lon="5.262757"><time>2026-05-06T18:49:46Z</time></trkpt>
<trkpt lat="49.964894" lon="5.263323"><time>2026-05-06T18:59:46Z</time></trkpt>
<trkpt lat="49.964522" lon="5.264649"><time>2026-05-06T19:09:46Z</time></trkpt>
<trkpt lat="49.963596" lon="5.267950"><time>2026-05-06T19:19:46Z</time></trkpt>
<trkpt lat="49.963607" lon="5.268945"><time>2026-05-06T19:29:46Z</time></trkpt>
<trkpt lat="49.962488" lon="5.272659"><time>2026-05-06T19:39:46Z</time></trkpt>
<trkpt lat="49.962620" lon="5.278976"><time>2026-05-06T19:49:46Z</time></trkpt>
</trkseg>
</trk>
<trk>
<name>xlblbi25</name>
<cmt>v</cmt>
<desc>Libin Chemin n°i25 </desc>
<link href="https://chemins.be/libin/chemin/i25"/><trkseg>
<trkpt lat="49.962355" lon="5.279319"><time>2026-05-06T18:09:46Z</time></trkpt>
<trkpt lat="49.962156" lon="5.282684"><time>2026-05-06T18:19:46Z</time></trkpt>
<trkpt lat="49.963553" lon="5.287183"><time>2026-05-06T18:29:46Z</time></trkpt>
<trkpt lat="49.964343" lon="5.289687"><time>2026-05-06T18:39:46Z</time></trkpt>
<trkpt lat="49.965436" lon="5.292692"><time>2026-05-06T18:49:46Z</time></trkpt>
<trkpt lat="49.965673" lon="5.292470"><time>2026-05-06T18:59:46Z</time></trkpt>
<trkpt lat="49.965789" lon="5.292142"><time>2026-05-06T19:09:46Z</time></trkpt>
<trkpt lat="49.967379" lon="5.290220"><time>2026-05-06T19:19:46Z</time></trkpt>
</trkseg>
</trk>
<trk>
<name>xlblbi26</name>
<cmt>v</cmt>
<desc>Libin Chemin n°i26 </desc>
<link href="https://chemins.be/libin/chemin/i26"/><trkseg>
<trkpt lat="49.971988" lon="5.312213"><time>2026-05-06T18:09:46Z</time></trkpt>
<trkpt lat="49.969989" lon="5.314375"><time>2026-05-06T18:19:46Z</time></trkpt>
</trkseg>
</trk>
<trk>
<name>xlblbi27</name>
<cmt>v</cmt>
<desc>Libin Chemin n°i27 </desc>
<link href="https://chemins.be/libin/chemin/i27"/><trkseg>
<trkpt lat="49.967587" lon="5.319291"><time>2026-05-06T18:09:46Z</time></trkpt>
<trkpt lat="49.967589" lon="5.320775"><time>2026-05-06T18:19:46Z</time></trkpt>
<trkpt lat="49.965933" lon="5.325204"><time>2026-05-06T18:29:46Z</time></trkpt>
<trkpt lat="49.966104" lon="5.325769"><time>2026-05-06T18:39:46Z</time></trkpt>
<trkpt lat="49.966143" lon="5.326371"><time>2026-05-06T18:49:46Z</time></trkpt>
<trkpt lat="49.965955" lon="5.327590"><time>2026-05-06T18:59:46Z</time></trkpt>
<trkpt lat="49.965392" lon="5.328243"><time>2026-05-06T19:09:46Z</time></trkpt>
<trkpt lat="49.963791" lon="5.327659"><time>2026-05-06T19:19:46Z</time></trkpt>
</trkseg>
</trk>
<trk>
<name>xlblbi28</name>
<cmt>v</cmt>
<desc>Libin Chemin n°i28 </desc>
<link href="https://chemins.be/libin/chemin/i28"/><trkseg>
<trkpt lat="49.985374" lon="5.282392"><time>2026-05-06T18:09:46Z</time></trkpt>
<trkpt lat="49.985882" lon="5.286065"><time>2026-05-06T18:19:46Z</time></trkpt>
</trkseg>
</trk>
<trk>
<name>xlblbi29</name>
<cmt>v</cmt>
<desc>Libin Chemin n°i29 </desc>
<link href="https://chemins.be/libin/chemin/i29"/><trkseg>
<trkpt lat="49.987110" lon="5.285784"><time>2026-05-06T18:09:46Z</time></trkpt>
<trkpt lat="49.987967" lon="5.290384"><time>2026-05-06T18:19:46Z</time></trkpt>
<trkpt lat="49.988417" lon="5.293462"><time>2026-05-06T18:29:46Z</time></trkpt>
<trkpt lat="49.988434" lon="5.293880"><time>2026-05-06T18:39:46Z</time></trkpt>
<trkpt lat="49.988682" lon="5.300054"><time>2026-05-06T18:49:46Z</time></trkpt>
<trkpt lat="49.986210" lon="5.306783"><time>2026-05-06T18:59:46Z</time></trkpt>
<trkpt lat="49.984921" lon="5.311506"><time>2026-05-06T19:09:46Z</time></trkpt>
</trkseg>
</trk>
<trk>
<name>xlblbi3</name>
<cmt>v</cmt>
<desc>Libin Chemin n°i3 </desc>
<link href="https://chemins.be/libin/chemin/i3"/><trkseg>
<trkpt lat="50.034127" lon="5.257097"><time>2026-05-06T18:09:46Z</time></trkpt>
<trkpt lat="50.034844" lon="5.259801"><time>2026-05-06T18:19:46Z</time></trkpt>
<trkpt lat="50.034872" lon="5.261625"><time>2026-05-06T18:29:46Z</time></trkpt>
</trkseg>
</trk>
<trk>
<name>xlblbi30</name>
<cmt>v</cmt>
<desc>Libin Chemin n°i30 </desc>
<link href="https://chemins.be/libin/chemin/i30"/><trkseg>
<trkpt lat="49.989888" lon="5.280212"><time>2026-05-06T18:09:46Z</time></trkpt>
<trkpt lat="49.986632" lon="5.282598"><time>2026-05-06T18:19:46Z</time></trkpt>
<trkpt lat="49.985264" lon="5.282254"><time>2026-05-06T18:29:46Z</time></trkpt>
<trkpt lat="49.982901" lon="5.282100"><time>2026-05-06T18:39:46Z</time></trkpt>
<trkpt lat="49.981389" lon="5.282975"><time>2026-05-06T18:49:46Z</time></trkpt>
<trkpt lat="49.979546" lon="5.285894"><time>2026-05-06T18:59:46Z</time></trkpt>
<trkpt lat="49.979020" lon="5.287056"><time>2026-05-06T19:09:46Z</time></trkpt>
<trkpt lat="49.978656" lon="5.287588"><time>2026-05-06T19:19:46Z</time></trkpt>
</trkseg>
</trk>
<trk>
<name>xlblbi31</name>
<cmt>v</cmt>
<desc>Libin Chemin n°i31 </desc>
<link href="https://chemins.be/libin/chemin/i31"/><trkseg>
<trkpt lat="49.974910" lon="5.239613"><time>2026-05-06T18:09:46Z</time></trkpt>
<trkpt lat="49.972559" lon="5.239399"><time>2026-05-06T18:19:46Z</time></trkpt>
</trkseg>
</trk>
<trk>
<name>xlblbi32</name>
<cmt>v</cmt>
<desc>Libin Chemin n°i32 </desc>
<link href="https://chemins.be/libin/chemin/i32"/><trkseg>
<trkpt lat="49.972715" lon="5.312276"><time>2026-05-06T18:09:46Z</time></trkpt>
<trkpt lat="49.977131" lon="5.309392"><time>2026-05-06T18:19:46Z</time></trkpt>
<trkpt lat="49.981988" lon="5.305959"><time>2026-05-06T18:29:46Z</time></trkpt>
</trkseg>
</trk>
<trk>
<name>xlblbi33</name>
<cmt>v</cmt>
<desc>Libin Chemin n°i33 </desc>
<link href="https://chemins.be/libin/chemin/i33"/><trkseg>
<trkpt lat="49.977811" lon="5.282563"><time>2026-05-06T18:09:46Z</time></trkpt>
<trkpt lat="49.978700" lon="5.282701"><time>2026-05-06T18:19:46Z</time></trkpt>
<trkpt lat="49.978485" lon="5.285919"><time>2026-05-06T18:29:46Z</time></trkpt>
<trkpt lat="49.978021" lon="5.286675"><time>2026-05-06T18:39:46Z</time></trkpt>
</trkseg>
</trk>
<trk>
<name>xlblbi34</name>
<cmt>v</cmt>
<desc>Libin Chemin n°i34 </desc>
<link href="https://chemins.be/libin/chemin/i34"/><trkseg>
<trkpt lat="49.993319" lon="5.261306"><time>2026-05-06T18:09:46Z</time></trkpt>
<trkpt lat="49.994715" lon="5.261289"><time>2026-05-06T18:19:46Z</time></trkpt>
<trkpt lat="49.996232" lon="5.261984"><time>2026-05-06T18:29:46Z</time></trkpt>
</trkseg>
</trk>
<trk>
<name>xlblbi35</name>
<cmt>v</cmt>
<desc>Libin Chemin n°i35 </desc>
<link href="https://chemins.be/libin/chemin/i35"/><trkseg>
<trkpt lat="50.008817" lon="5.289200"><time>2026-05-06T18:09:46Z</time></trkpt>
<trkpt lat="50.007622" lon="5.289579"><time>2026-05-06T18:19:46Z</time></trkpt>
<trkpt lat="50.007190" lon="5.289937"><time>2026-05-06T18:29:46Z</time></trkpt>
<trkpt lat="50.007314" lon="5.292576"><time>2026-05-06T18:39:46Z</time></trkpt>
<trkpt lat="50.007226" lon="5.293127"><time>2026-05-06T18:49:46Z</time></trkpt>
<trkpt lat="50.007815" lon="5.294579"><time>2026-05-06T18:59:46Z</time></trkpt>
</trkseg>
</trk>
<trk>
<name>xlblbi36</name>
<cmt>v</cmt>
<desc>Libin Chemin n°i36 </desc>
<link href="https://chemins.be/libin/chemin/i36"/><trkseg>
<trkpt lat="50.009534" lon="5.294500"><time>2026-05-06T18:09:46Z</time></trkpt>
<trkpt lat="50.008831" lon="5.294843"><time>2026-05-06T18:19:46Z</time></trkpt>
<trkpt lat="50.007792" lon="5.294636"><time>2026-05-06T18:29:46Z</time></trkpt>
<trkpt lat="50.007539" lon="5.295079"><time>2026-05-06T18:39:46Z</time></trkpt>
<trkpt lat="50.007397" lon="5.295451"><time>2026-05-06T18:49:46Z</time></trkpt>
<trkpt lat="50.007641" lon="5.295971"><time>2026-05-06T18:59:46Z</time></trkpt>
<trkpt lat="50.008229" lon="5.296488"><time>2026-05-06T19:09:46Z</time></trkpt>
<trkpt lat="50.008527" lon="5.296796"><time>2026-05-06T19:19:46Z</time></trkpt>
<trkpt lat="50.008573" lon="5.299020"><time>2026-05-06T19:29:46Z</time></trkpt>
<trkpt lat="50.007792" lon="5.301645"><time>2026-05-06T19:39:46Z</time></trkpt>
<trkpt lat="50.007553" lon="5.302153"><time>2026-05-06T19:49:46Z</time></trkpt>
<trkpt lat="50.007121" lon="5.302046"><time>2026-05-06T19:59:46Z</time></trkpt>
<trkpt lat="50.006955" lon="5.302239"><time>2026-05-06T20:09:46Z</time></trkpt>
<trkpt lat="50.007020" lon="5.303083"><time>2026-05-06T20:19:46Z</time></trkpt>
<trkpt lat="50.005446" lon="5.304164"><time>2026-05-06T20:29:46Z</time></trkpt>
</trkseg>
</trk>
<trk>
<name>xlblbi37</name>
<cmt>v</cmt>
<desc>Libin Chemin n°i37 </desc>
<link href="https://chemins.be/libin/chemin/i37"/><trkseg>
<trkpt lat="50.006035" lon="5.293095"><time>2026-05-06T18:09:46Z</time></trkpt>
<trkpt lat="50.006113" lon="5.293771"><time>2026-05-06T18:19:46Z</time></trkpt>
<trkpt lat="50.005727" lon="5.294279"><time>2026-05-06T18:29:46Z</time></trkpt>
</trkseg>
</trk>
<trk>
<name>xlblbi38</name>
<cmt>v</cmt>
<desc>Libin Chemin n°i38 </desc>
<link href="https://chemins.be/libin/chemin/i38"/><trkseg>
<trkpt lat="50.007001" lon="5.302126"><time>2026-05-06T18:09:46Z</time></trkpt>
<trkpt lat="50.006243" lon="5.301118"><time>2026-05-06T18:19:46Z</time></trkpt>
<trkpt lat="50.005801" lon="5.301075"><time>2026-05-06T18:29:46Z</time></trkpt>
<trkpt lat="50.005553" lon="5.301955"><time>2026-05-06T18:39:46Z</time></trkpt>
<trkpt lat="50.004022" lon="5.302277"><time>2026-05-06T18:49:46Z</time></trkpt>
<trkpt lat="50.003222" lon="5.301139"><time>2026-05-06T18:59:46Z</time></trkpt>
<trkpt lat="50.002326" lon="5.297878"><time>2026-05-06T19:09:46Z</time></trkpt>
<trkpt lat="50.001845" lon="5.296939"><time>2026-05-06T19:19:46Z</time></trkpt>
<trkpt lat="50.000988" lon="5.295410"><time>2026-05-06T19:29:46Z</time></trkpt>
<trkpt lat="49.999140" lon="5.294874"><time>2026-05-06T19:39:46Z</time></trkpt>
<trkpt lat="49.998078" lon="5.298436"><time>2026-05-06T19:49:46Z</time></trkpt>
</trkseg>
</trk>
<trk>
<name>xlblbi39</name>
<cmt>v</cmt>
<desc>Libin Chemin n°i39 </desc>
<link href="https://chemins.be/libin/chemin/i39"/><trkseg>
<trkpt lat="49.991622" lon="5.311997"><time>2026-05-06T18:09:46Z</time></trkpt>
<trkpt lat="49.994698" lon="5.310988"><time>2026-05-06T18:19:46Z</time></trkpt>
<trkpt lat="49.995995" lon="5.308306"><time>2026-05-06T18:29:46Z</time></trkpt>
<trkpt lat="49.996133" lon="5.305603"><time>2026-05-06T18:39:46Z</time></trkpt>
<trkpt lat="49.996712" lon="5.304272"><time>2026-05-06T18:49:46Z</time></trkpt>
<trkpt lat="49.996823" lon="5.302362"><time>2026-05-06T18:59:46Z</time></trkpt>
<trkpt lat="49.998919" lon="5.302062"><time>2026-05-06T19:09:46Z</time></trkpt>
<trkpt lat="49.998616" lon="5.299551"><time>2026-05-06T19:19:46Z</time></trkpt>
</trkseg>
</trk>
<trk>
<name>xlblbi4</name>
<cmt>v</cmt>
<desc>Libin Chemin n°i4 </desc>
<link href="https://chemins.be/libin/chemin/i4"/><trkseg>
<trkpt lat="50.029964" lon="5.264742"><time>2026-05-06T18:09:46Z</time></trkpt>
<trkpt lat="50.028745" lon="5.269366"><time>2026-05-06T18:19:46Z</time></trkpt>
<trkpt lat="50.028027" lon="5.270047"><time>2026-05-06T18:29:46Z</time></trkpt>
<trkpt lat="50.027724" lon="5.270541"><time>2026-05-06T18:39:46Z</time></trkpt>
<trkpt lat="50.028069" lon="5.272880"><time>2026-05-06T18:49:46Z</time></trkpt>
<trkpt lat="50.027862" lon="5.273330"><time>2026-05-06T18:59:46Z</time></trkpt>
<trkpt lat="50.024843" lon="5.273910"><time>2026-05-06T19:09:46Z</time></trkpt>
<trkpt lat="50.023878" lon="5.274360"><time>2026-05-06T19:19:46Z</time></trkpt>
</trkseg>
</trk>
<trk>
<name>xlblbi40</name>
<cmt>v</cmt>
<desc>Libin Chemin n°i40 </desc>
<link href="https://chemins.be/libin/chemin/i40"/><trkseg>
<trkpt lat="50.030154" lon="5.265530"><time>2026-05-06T18:09:46Z</time></trkpt>
<trkpt lat="50.030519" lon="5.265434"><time>2026-05-06T18:19:46Z</time></trkpt>
<trkpt lat="50.030808" lon="5.264994"><time>2026-05-06T18:29:46Z</time></trkpt>
<trkpt lat="50.031139" lon="5.265155"><time>2026-05-06T18:39:46Z</time></trkpt>
<trkpt lat="50.031966" lon="5.264640"><time>2026-05-06T18:49:46Z</time></trkpt>
<trkpt lat="50.032015" lon="5.264755"><time>2026-05-06T18:59:46Z</time></trkpt>
<trkpt lat="50.031938" lon="5.265123"><time>2026-05-06T19:09:46Z</time></trkpt>
</trkseg>
</trk>
<trk>
<name>xlblbi41</name>
<cmt>v</cmt>
<desc>Libin Chemin n°i41 </desc>
<link href="https://chemins.be/libin/chemin/i41"/><trkseg>
<trkpt lat="50.007341" lon="5.292637"><time>2026-05-06T18:09:46Z</time></trkpt>
<trkpt lat="50.008868" lon="5.289354"><time>2026-05-06T18:19:46Z</time></trkpt>
<trkpt lat="50.008808" lon="5.289161"><time>2026-05-06T18:29:46Z</time></trkpt>
<trkpt lat="50.008776" lon="5.288853"><time>2026-05-06T18:39:46Z</time></trkpt>
<trkpt lat="50.008858" lon="5.288188"><time>2026-05-06T18:49:46Z</time></trkpt>
<trkpt lat="50.008854" lon="5.287294"><time>2026-05-06T18:59:46Z</time></trkpt>
<trkpt lat="50.008527" lon="5.286421"><time>2026-05-06T19:09:46Z</time></trkpt>
<trkpt lat="50.008369" lon="5.286286"><time>2026-05-06T19:19:46Z</time></trkpt>
<trkpt lat="50.008286" lon="5.286178"><time>2026-05-06T19:29:46Z</time></trkpt>
<trkpt lat="50.008201" lon="5.285169"><time>2026-05-06T19:39:46Z</time></trkpt>
<trkpt lat="50.007990" lon="5.284290"><time>2026-05-06T19:49:46Z</time></trkpt>
<trkpt lat="50.008709" lon="5.283634"><time>2026-05-06T19:59:46Z</time></trkpt>
<trkpt lat="50.009541" lon="5.283298"><time>2026-05-06T20:09:46Z</time></trkpt>
<trkpt lat="50.011444" lon="5.282543"><time>2026-05-06T20:19:46Z</time></trkpt>
<trkpt lat="50.011819" lon="5.282187"><time>2026-05-06T20:29:46Z</time></trkpt>
<trkpt lat="50.012563" lon="5.280721"><time>2026-05-06T20:39:46Z</time></trkpt>
<trkpt lat="50.013230" lon="5.279798"><time>2026-05-06T20:49:46Z</time></trkpt>
</trkseg>
</trk>
<trk>
<name>xlblbi42</name>
<cmt>v</cmt>
<desc>Libin Chemin n°i42 </desc>
<link href="https://chemins.be/libin/chemin/i42"/><trkseg>
<trkpt lat="50.030125" lon="5.257004"><time>2026-05-06T18:09:46Z</time></trkpt>
<trkpt lat="50.030612" lon="5.255975"><time>2026-05-06T18:19:46Z</time></trkpt>
<trkpt lat="50.033553" lon="5.254244"><time>2026-05-06T18:29:46Z</time></trkpt>
<trkpt lat="50.033378" lon="5.252026"><time>2026-05-06T18:39:46Z</time></trkpt>
</trkseg>
</trk>
<trk>
<name>xlblbi43</name>
<cmt>v</cmt>
<desc>Libin Chemin n°i43 </desc>
<link href="https://chemins.be/libin/chemin/i43"/><trkseg>
<trkpt lat="50.030730" lon="5.255883"><time>2026-05-06T18:09:46Z</time></trkpt>
<trkpt lat="50.030877" lon="5.251642"><time>2026-05-06T18:19:46Z</time></trkpt>
<trkpt lat="50.030732" lon="5.242907"><time>2026-05-06T18:29:46Z</time></trkpt>
</trkseg>
</trk>
<trk>
<name>xlblbi44</name>
<cmt>v</cmt>
<desc>Libin Chemin n°i44 </desc>
<link href="https://chemins.be/libin/chemin/i44"/><trkseg>
<trkpt lat="49.978124" lon="5.239354"><time>2026-05-06T18:09:46Z</time></trkpt>
<trkpt lat="49.979265" lon="5.239304"><time>2026-05-06T18:19:46Z</time></trkpt>
<trkpt lat="49.980106" lon="5.238830"><time>2026-05-06T18:29:46Z</time></trkpt>
</trkseg>
</trk>
<trk>
<name>xlblbi45</name>
<cmt>v</cmt>
<desc>Libin Chemin n°i45 Chemin des Italiens</desc>
<link href="https://chemins.be/libin/chemin/i45"/><trkseg>
<trkpt lat="49.973372" lon="5.287110"><time>2026-05-06T18:09:46Z</time></trkpt>
<trkpt lat="49.969281" lon="5.283800"><time>2026-05-06T18:19:46Z</time></trkpt>
<trkpt lat="49.969097" lon="5.282798"><time>2026-05-06T18:29:46Z</time></trkpt>
<trkpt lat="49.966779" lon="5.275539"><time>2026-05-06T18:39:46Z</time></trkpt>
<trkpt lat="49.965872" lon="5.271798"><time>2026-05-06T18:49:46Z</time></trkpt>
<trkpt lat="49.965734" lon="5.269387"><time>2026-05-06T18:59:46Z</time></trkpt>
<trkpt lat="49.964552" lon="5.268515"><time>2026-05-06T19:09:46Z</time></trkpt>
<trkpt lat="49.965293" lon="5.266641"><time>2026-05-06T19:19:46Z</time></trkpt>
<trkpt lat="49.965205" lon="5.266026"><time>2026-05-06T19:29:46Z</time></trkpt>
<trkpt lat="49.965389" lon="5.265782"><time>2026-05-06T19:39:46Z</time></trkpt>
</trkseg>
</trk>
<trk>
<name>xlblbi46</name>
<cmt>v</cmt>
<desc>Libin Chemin n°i46 </desc>
<link href="https://chemins.be/libin/chemin/i46"/><trkseg>
<trkpt lat="50.034248" lon="5.251647"><time>2026-05-06T18:09:46Z</time></trkpt>
<trkpt lat="50.034266" lon="5.250260"><time>2026-05-06T18:19:46Z</time></trkpt>
<trkpt lat="50.034259" lon="5.248260"><time>2026-05-06T18:29:46Z</time></trkpt>
<trkpt lat="50.034248" lon="5.245038"><time>2026-05-06T18:39:46Z</time></trkpt>
<trkpt lat="50.033742" lon="5.244695"><time>2026-05-06T18:49:46Z</time></trkpt>
<trkpt lat="50.033665" lon="5.243972"><time>2026-05-06T18:59:46Z</time></trkpt>
<trkpt lat="50.033408" lon="5.243678"><time>2026-05-06T19:09:46Z</time></trkpt>
</trkseg>
</trk>
<trk>
<name>xlblbi47</name>
<cmt>v</cmt>
<desc>Libin Chemin n°i47 </desc>
<link href="https://chemins.be/libin/chemin/i47"/><trkseg>
<trkpt lat="50.030958" lon="5.242921"><time>2026-05-06T18:09:46Z</time></trkpt>
<trkpt lat="50.032346" lon="5.243136"><time>2026-05-06T18:19:46Z</time></trkpt>
<trkpt lat="50.033448" lon="5.243593"><time>2026-05-06T18:29:46Z</time></trkpt>
<trkpt lat="50.034771" lon="5.243965"><time>2026-05-06T18:39:46Z</time></trkpt>
<trkpt lat="50.035938" lon="5.244066"><time>2026-05-06T18:49:46Z</time></trkpt>
<trkpt lat="50.037739" lon="5.243121"><time>2026-05-06T18:59:46Z</time></trkpt>
</trkseg>
</trk>
<trk>
<name>xlblbi48</name>
<cmt>v</cmt>
<desc>Libin Chemin n°i48 </desc>
<link href="https://chemins.be/libin/chemin/i48"/><trkseg>
<trkpt lat="50.037376" lon="5.247999"><time>2026-05-06T18:09:46Z</time></trkpt>
<trkpt lat="50.036669" lon="5.248672"><time>2026-05-06T18:19:46Z</time></trkpt>
<trkpt lat="50.035631" lon="5.250002"><time>2026-05-06T18:29:46Z</time></trkpt>
<trkpt lat="50.034206" lon="5.250331"><time>2026-05-06T18:39:46Z</time></trkpt>
<trkpt lat="50.032258" lon="5.248772"><time>2026-05-06T18:49:46Z</time></trkpt>
<trkpt lat="50.031404" lon="5.249029"><time>2026-05-06T18:59:46Z</time></trkpt>
<trkpt lat="50.030859" lon="5.249476"><time>2026-05-06T19:09:46Z</time></trkpt>
<trkpt lat="50.028702" lon="5.251991"><time>2026-05-06T19:19:46Z</time></trkpt>
<trkpt lat="50.027572" lon="5.252777"><time>2026-05-06T19:29:46Z</time></trkpt>
<trkpt lat="50.026662" lon="5.254422"><time>2026-05-06T19:39:46Z</time></trkpt>
</trkseg>
</trk>
<trk>
<name>xlblbi49</name>
<cmt>v</cmt>
<desc>Libin Chemin n°i49 </desc>
<link href="https://chemins.be/libin/chemin/i49"/><trkseg>
<trkpt lat="50.027912" lon="5.256397"><time>2026-05-06T18:09:46Z</time></trkpt>
<trkpt lat="50.026680" lon="5.254451"><time>2026-05-06T18:19:46Z</time></trkpt>
<trkpt lat="50.024456" lon="5.250746"><time>2026-05-06T18:29:46Z</time></trkpt>
</trkseg>
</trk>
<trk>
<name>xlblbi5</name>
<cmt>v</cmt>
<desc>Libin Chemin n°i5 </desc>
<link href="https://chemins.be/libin/chemin/i5"/><trkseg>
<trkpt lat="50.022307" lon="5.281007"><time>2026-05-06T18:09:46Z</time></trkpt>
<trkpt lat="50.022341" lon="5.279805"><time>2026-05-06T18:19:46Z</time></trkpt>
<trkpt lat="50.022017" lon="5.278282"><time>2026-05-06T18:29:46Z</time></trkpt>
<trkpt lat="50.022252" lon="5.275760"><time>2026-05-06T18:39:46Z</time></trkpt>
<trkpt lat="50.022038" lon="5.274516"><time>2026-05-06T18:49:46Z</time></trkpt>
<trkpt lat="50.021997" lon="5.273486"><time>2026-05-06T18:59:46Z</time></trkpt>
<trkpt lat="50.022086" lon="5.273110"><time>2026-05-06T19:09:46Z</time></trkpt>
</trkseg>
</trk>
<trk>
<name>xlblbi6</name>
<cmt>r</cmt>
<desc>Libin Chemin n°i6 Rue de Sart-Bozy</desc>
<link href="https://chemins.be/libin/chemin/i6"/><trkseg>
<trkpt lat="50.016151" lon="5.267504"><time>2026-05-06T18:09:46Z</time></trkpt>
<trkpt lat="50.016254" lon="5.269994"><time>2026-05-06T18:19:46Z</time></trkpt>
<trkpt lat="50.016206" lon="5.271056"><time>2026-05-06T18:29:46Z</time></trkpt>
<trkpt lat="50.016289" lon="5.272118"><time>2026-05-06T18:39:46Z</time></trkpt>
<trkpt lat="50.016544" lon="5.273003"><time>2026-05-06T18:49:46Z</time></trkpt>
</trkseg></trk>
<trk>
<name>xlblbi6</name>
<cmt>v</cmt>
<desc>Libin Chemin n°i6 Rue de Sart-Bozy</desc>
<link href="https://chemins.be/libin/chemin/i6"/><trkseg>
<trkpt lat="50.016544" lon="5.273003"><time>2026-05-06T18:49:46Z</time></trkpt>
<trkpt lat="50.016971" lon="5.274478"><time>2026-05-06T18:59:46Z</time></trkpt>
<trkpt lat="50.017171" lon="5.277064"><time>2026-05-06T19:09:46Z</time></trkpt>
</trkseg>
</trk>
<trk>
<name>xlblbi7</name>
<cmt>r</cmt>
<desc>Libin Chemin n°i7 </desc>
<link href="https://chemins.be/libin/chemin/i7"/><trkseg>
<trkpt lat="50.015623" lon="5.267279"><time>2026-05-06T18:09:46Z</time></trkpt>
<trkpt lat="50.015730" lon="5.269082"><time>2026-05-06T18:19:46Z</time></trkpt>
</trkseg>
</trk>
<trk>
<name>xlblbi8</name>
<cmt>v</cmt>
<desc>Libin Sentier n°i8 Sentier des Nutons</desc>
<link href="https://chemins.be/libin/sentier/i8"/><trkseg>
<trkpt lat="49.998923" lon="5.254925"><time>2026-05-06T18:09:46Z</time></trkpt>
<trkpt lat="49.998881" lon="5.253675"><time>2026-05-06T18:19:46Z</time></trkpt>
<trkpt lat="49.998923" lon="5.253101"><time>2026-05-06T18:29:46Z</time></trkpt>
<trkpt lat="49.999202" lon="5.252436"><time>2026-05-06T18:39:46Z</time></trkpt>
<trkpt lat="49.999385" lon="5.252339"><time>2026-05-06T18:49:46Z</time></trkpt>
<trkpt lat="49.999692" lon="5.252709"><time>2026-05-06T18:59:46Z</time></trkpt>
<trkpt lat="49.999788" lon="5.253380"><time>2026-05-06T19:09:46Z</time></trkpt>
<trkpt lat="49.999681" lon="5.254233"><time>2026-05-06T19:19:46Z</time></trkpt>
<trkpt lat="49.999799" lon="5.254426"><time>2026-05-06T19:29:46Z</time></trkpt>
<trkpt lat="50.000123" lon="5.253804"><time>2026-05-06T19:39:46Z</time></trkpt>
<trkpt lat="50.000450" lon="5.253959"><time>2026-05-06T19:49:46Z</time></trkpt>
<trkpt lat="50.000447" lon="5.255011"><time>2026-05-06T19:59:46Z</time></trkpt>
<trkpt lat="50.001161" lon="5.255837"><time>2026-05-06T20:09:46Z</time></trkpt>
</trkseg>
</trk>
<trk>
<name>xlblbi9</name>
<cmt>v</cmt>
<desc>Libin Chemin n°i9 </desc>
<link href="https://chemins.be/libin/chemin/i9"/><trkseg>
<trkpt lat="50.015489" lon="5.269811"><time>2026-05-06T18:09:46Z</time></trkpt>
<trkpt lat="50.015696" lon="5.273395"><time>2026-05-06T18:19:46Z</time></trkpt>
<trkpt lat="50.016206" lon="5.274661"><time>2026-05-06T18:29:46Z</time></trkpt>
<trkpt lat="50.016441" lon="5.277128"><time>2026-05-06T18:39:46Z</time></trkpt>
</trkseg>
</trk>
<trk>
<name>xlblbLv617</name>
<cmt>s</cmt>
<desc>Libin Chemin n°Lv617 Rue de Poix / Chemin du Tram / Rue de Villance</desc>
<link href="https://chemins.be/libin/chemin/Lv617"/><trkseg>
<trkpt lat="50.022512" lon="5.285810"><time>2026-05-06T18:09:46Z</time></trkpt>
<trkpt lat="50.022974" lon="5.284340"><time>2026-05-06T18:19:46Z</time></trkpt>
<trkpt lat="50.022993" lon="5.283000"><time>2026-05-06T18:29:46Z</time></trkpt>
<trkpt lat="50.022340" lon="5.282569"><time>2026-05-06T18:39:46Z</time></trkpt>
</trkseg></trk>
<trk>
<name>xlblbLv617</name>
<cmt>v</cmt>
<desc>Libin Chemin n°Lv617 Rue de Poix / Chemin du Tram / Rue de Villance</desc>
<link href="https://chemins.be/libin/chemin/Lv617"/><trkseg>
<trkpt lat="50.022340" lon="5.282569"><time>2026-05-06T18:39:46Z</time></trkpt>
<trkpt lat="50.020587" lon="5.282106"><time>2026-05-06T18:49:46Z</time></trkpt>
<trkpt lat="50.018785" lon="5.280799"><time>2026-05-06T18:59:46Z</time></trkpt>
<trkpt lat="50.017140" lon="5.282149"><time>2026-05-06T19:09:46Z</time></trkpt>
<trkpt lat="50.015206" lon="5.282189"><time>2026-05-06T19:19:46Z</time></trkpt>
<trkpt lat="50.014379" lon="5.281659"><time>2026-05-06T19:29:46Z</time></trkpt>
<trkpt lat="50.012942" lon="5.279445"><time>2026-05-06T19:39:46Z</time></trkpt>
<trkpt lat="50.012439" lon="5.279628"><time>2026-05-06T19:49:46Z</time></trkpt>
<trkpt lat="50.010232" lon="5.281146"><time>2026-05-06T19:59:46Z</time></trkpt>
<trkpt lat="50.009329" lon="5.281174"><time>2026-05-06T20:09:46Z</time></trkpt>
<trkpt lat="50.006416" lon="5.280354"><time>2026-05-06T20:19:46Z</time></trkpt>
<trkpt lat="50.005775" lon="5.279404"><time>2026-05-06T20:29:46Z</time></trkpt>
<trkpt lat="50.005398" lon="5.278488"><time>2026-05-06T20:39:46Z</time></trkpt>
<trkpt lat="50.005086" lon="5.276924"><time>2026-05-06T20:49:46Z</time></trkpt>
<trkpt lat="50.004349" lon="5.273353"><time>2026-05-06T20:59:46Z</time></trkpt>
<trkpt lat="50.004534" lon="5.269367"><time>2026-05-06T21:09:46Z</time></trkpt>
<trkpt lat="50.005912" lon="5.265439"><time>2026-05-06T21:19:46Z</time></trkpt>
<trkpt lat="50.005947" lon="5.264763"><time>2026-05-06T21:29:46Z</time></trkpt>
<trkpt lat="50.005816" lon="5.264216"><time>2026-05-06T21:39:46Z</time></trkpt>
<trkpt lat="50.004967" lon="5.264001"><time>2026-05-06T21:49:46Z</time></trkpt>
<trkpt lat="50.003650" lon="5.266995"><time>2026-05-06T21:59:46Z</time></trkpt>
<trkpt lat="50.003191" lon="5.267472"><time>2026-05-06T22:09:46Z</time></trkpt>
<trkpt lat="49.997733" lon="5.270455"><time>2026-05-06T22:19:46Z</time></trkpt>
</trkseg></trk>
<trk>
<name>xlblbLv617</name>
<cmt>r</cmt>
<desc>Libin Chemin n°Lv617 Rue de Poix / Chemin du Tram / Rue de Villance</desc>
<link href="https://chemins.be/libin/chemin/Lv617"/><trkseg>
<trkpt lat="49.997733" lon="5.270455"><time>2026-05-06T22:19:46Z</time></trkpt>
<trkpt lat="49.997044" lon="5.270176"><time>2026-05-06T22:29:46Z</time></trkpt>
<trkpt lat="49.985723" lon="5.259098"><time>2026-05-06T22:39:46Z</time></trkpt>
<trkpt lat="49.984586" lon="5.255499"><time>2026-05-06T22:49:46Z</time></trkpt>
<trkpt lat="49.984290" lon="5.254319"><time>2026-05-06T22:59:46Z</time></trkpt>
<trkpt lat="49.984028" lon="5.253793"><time>2026-05-06T23:09:46Z</time></trkpt>
<trkpt lat="49.980897" lon="5.251729"><time>2026-05-06T23:19:46Z</time></trkpt>
<trkpt lat="49.978116" lon="5.242727"><time>2026-05-06T23:29:46Z</time></trkpt>
<trkpt lat="49.976191" lon="5.239220"><time>2026-05-06T23:39:46Z</time></trkpt>
</trkseg>
</trk>
</gpx>